<?xml version="1.0" encoding="UTF-8" standalone="no" ?>
<gpx xmlns="http://www.topografix.com/GPX/1/1" xmlns:xsi="http://www.w3.org/2001/XMLSchema-instance" xsi:schemaLocation="http://www.topografix.com/GPX/1/1 http://www.topografix.com/GPX/1/1/gpx.xsd" version="1.1" creator="VisuGPX - https://www.visugpx.com">
  <metadata>
    <name>CYCLO la campagne Gapençaise (2)</name>
    <desc><![CDATA[Gap /Grand Larra/Batie vieille/Batie Neuve/ND du Laus /Jarjayes...ça monte , ça descend, ça remonte, ça redescend ..etc  pour ce bien joili circuit]]></desc>
  </metadata>
  <trk>
    <name><![CDATA[ACTIVE LOG 003]]></name>
    <trkseg>
      <trkpt lat="44.55797" lon="6.08276">
        <ele>671.1376953</ele>
        <time>2016-05-20T08:33:54Z</time>
      </trkpt>
      <trkpt lat="44.55846" lon="6.08331">
        <ele>671.6181641</ele>
        <time>2016-05-20T08:34:12Z</time>
      </trkpt>
      <trkpt lat="44.55888" lon="6.08371">
        <ele>672.098877</ele>
        <time>2016-05-20T08:34:27Z</time>
      </trkpt>
      <trkpt lat="44.55926" lon="6.08399">
        <ele>673.0603027</ele>
        <time>2016-05-20T08:34:41Z</time>
      </trkpt>
      <trkpt lat="44.55961" lon="6.08431">
        <ele>674.0214844</ele>
        <time>2016-05-20T08:34:59Z</time>
      </trkpt>
      <trkpt lat="44.55979" lon="6.08446">
        <ele>674.5021973</ele>
        <time>2016-05-20T08:35:08Z</time>
      </trkpt>
      <trkpt lat="44.55965" lon="6.08484">
        <ele>675.9440918</ele>
        <time>2016-05-20T08:35:20Z</time>
      </trkpt>
      <trkpt lat="44.55951" lon="6.08527">
        <ele>677.8666992</ele>
        <time>2016-05-20T08:35:35Z</time>
      </trkpt>
      <trkpt lat="44.55938" lon="6.08566">
        <ele>681.2314453</ele>
        <time>2016-05-20T08:35:49Z</time>
      </trkpt>
      <trkpt lat="44.55951" lon="6.08612">
        <ele>682.6733398</ele>
        <time>2016-05-20T08:36:03Z</time>
      </trkpt>
      <trkpt lat="44.55954" lon="6.0862">
        <ele>687.4799805</ele>
        <time>2016-05-20T08:36:06Z</time>
      </trkpt>
      <trkpt lat="44.55956" lon="6.08626">
        <ele>693.2478027</ele>
        <time>2016-05-20T08:36:08Z</time>
      </trkpt>
      <trkpt lat="44.55958" lon="6.08631">
        <ele>697.0930176</ele>
        <time>2016-05-20T08:36:10Z</time>
      </trkpt>
      <trkpt lat="44.55961" lon="6.08635">
        <ele>700.9384766</ele>
        <time>2016-05-20T08:36:12Z</time>
      </trkpt>
      <trkpt lat="44.55962" lon="6.08641">
        <ele>704.3032227</ele>
        <time>2016-05-20T08:36:14Z</time>
      </trkpt>
      <trkpt lat="44.55963" lon="6.08647">
        <ele>708.1484375</ele>
        <time>2016-05-20T08:36:16Z</time>
      </trkpt>
      <trkpt lat="44.55965" lon="6.08653">
        <ele>711.9936523</ele>
        <time>2016-05-20T08:36:18Z</time>
      </trkpt>
      <trkpt lat="44.55968" lon="6.08657">
        <ele>714.8774414</ele>
        <time>2016-05-20T08:36:20Z</time>
      </trkpt>
      <trkpt lat="44.55971" lon="6.08665">
        <ele>718.7229004</ele>
        <time>2016-05-20T08:36:23Z</time>
      </trkpt>
      <trkpt lat="44.55974" lon="6.08673">
        <ele>723.0488281</ele>
        <time>2016-05-20T08:36:26Z</time>
      </trkpt>
      <trkpt lat="44.55977" lon="6.08681">
        <ele>726.894043</ele>
        <time>2016-05-20T08:36:29Z</time>
      </trkpt>
      <trkpt lat="44.55981" lon="6.08688">
        <ele>729.777832</ele>
        <time>2016-05-20T08:36:32Z</time>
      </trkpt>
      <trkpt lat="44.55987" lon="6.08697">
        <ele>733.623291</ele>
        <time>2016-05-20T08:36:36Z</time>
      </trkpt>
      <trkpt lat="44.55989" lon="6.08702">
        <ele>735.5458984</ele>
        <time>2016-05-20T08:36:38Z</time>
      </trkpt>
      <trkpt lat="44.55992" lon="6.08712">
        <ele>738.9106445</ele>
        <time>2016-05-20T08:36:42Z</time>
      </trkpt>
      <trkpt lat="44.55997" lon="6.08724">
        <ele>742.7558594</ele>
        <time>2016-05-20T08:36:47Z</time>
      </trkpt>
      <trkpt lat="44.56003" lon="6.08736">
        <ele>745.6396484</ele>
        <time>2016-05-20T08:36:52Z</time>
      </trkpt>
      <trkpt lat="44.56009" lon="6.08754">
        <ele>749.4851074</ele>
        <time>2016-05-20T08:36:59Z</time>
      </trkpt>
      <trkpt lat="44.5601" lon="6.08757">
        <ele>749.9658203</ele>
        <time>2016-05-20T08:37:00Z</time>
      </trkpt>
      <trkpt lat="44.56019" lon="6.08784">
        <ele>753.3303223</ele>
        <time>2016-05-20T08:37:10Z</time>
      </trkpt>
      <trkpt lat="44.56031" lon="6.08815">
        <ele>756.2141113</ele>
        <time>2016-05-20T08:37:22Z</time>
      </trkpt>
      <trkpt lat="44.56051" lon="6.08873">
        <ele>759.0981445</ele>
        <time>2016-05-20T08:37:40Z</time>
      </trkpt>
      <trkpt lat="44.56085" lon="6.0896">
        <ele>761.5014648</ele>
        <time>2016-05-20T08:38:03Z</time>
      </trkpt>
      <trkpt lat="44.56121" lon="6.09058">
        <ele>762.4626465</ele>
        <time>2016-05-20T08:38:26Z</time>
      </trkpt>
      <trkpt lat="44.56146" lon="6.09159">
        <ele>763.4240723</ele>
        <time>2016-05-20T08:38:49Z</time>
      </trkpt>
      <trkpt lat="44.56163" lon="6.0924">
        <ele>763.4240723</ele>
        <time>2016-05-20T08:39:07Z</time>
      </trkpt>
      <trkpt lat="44.56168" lon="6.09262">
        <ele>763.904541</ele>
        <time>2016-05-20T08:39:11Z</time>
      </trkpt>
      <trkpt lat="44.56176" lon="6.09303">
        <ele>763.4240723</ele>
        <time>2016-05-20T08:39:18Z</time>
      </trkpt>
      <trkpt lat="44.56183" lon="6.09335">
        <ele>762.9433594</ele>
        <time>2016-05-20T08:39:24Z</time>
      </trkpt>
      <trkpt lat="44.5618" lon="6.09399">
        <ele>762.9433594</ele>
        <time>2016-05-20T08:39:35Z</time>
      </trkpt>
      <trkpt lat="44.56172" lon="6.09454">
        <ele>762.9433594</ele>
        <time>2016-05-20T08:39:44Z</time>
      </trkpt>
      <trkpt lat="44.56162" lon="6.09489">
        <ele>763.4240723</ele>
        <time>2016-05-20T08:39:50Z</time>
      </trkpt>
      <trkpt lat="44.56161" lon="6.09525">
        <ele>763.4240723</ele>
        <time>2016-05-20T08:39:56Z</time>
      </trkpt>
      <trkpt lat="44.5617" lon="6.09571">
        <ele>761.020752</ele>
        <time>2016-05-20T08:40:02Z</time>
      </trkpt>
      <trkpt lat="44.56195" lon="6.09597">
        <ele>759.0981445</ele>
        <time>2016-05-20T08:40:09Z</time>
      </trkpt>
      <trkpt lat="44.5626" lon="6.09582">
        <ele>755.7336426</ele>
        <time>2016-05-20T08:40:18Z</time>
      </trkpt>
      <trkpt lat="44.56268" lon="6.09581">
        <ele>755.7336426</ele>
        <time>2016-05-20T08:40:19Z</time>
      </trkpt>
      <trkpt lat="44.56337" lon="6.09567">
        <ele>752.3688965</ele>
        <time>2016-05-20T08:40:29Z</time>
      </trkpt>
      <trkpt lat="44.56377" lon="6.09565">
        <ele>749.9658203</ele>
        <time>2016-05-20T08:40:41Z</time>
      </trkpt>
      <trkpt lat="44.56379" lon="6.09623">
        <ele>750.927002</ele>
        <time>2016-05-20T08:40:53Z</time>
      </trkpt>
      <trkpt lat="44.5638" lon="6.09713">
        <ele>751.4077148</ele>
        <time>2016-05-20T08:41:11Z</time>
      </trkpt>
      <trkpt lat="44.56367" lon="6.09814">
        <ele>752.8496094</ele>
        <time>2016-05-20T08:41:32Z</time>
      </trkpt>
      <trkpt lat="44.56364" lon="6.09922">
        <ele>753.3303223</ele>
        <time>2016-05-20T08:41:54Z</time>
      </trkpt>
      <trkpt lat="44.56382" lon="6.10033">
        <ele>753.8110352</ele>
        <time>2016-05-20T08:42:19Z</time>
      </trkpt>
      <trkpt lat="44.56407" lon="6.10063">
        <ele>754.7722168</ele>
        <time>2016-05-20T08:42:30Z</time>
      </trkpt>
      <trkpt lat="44.56431" lon="6.10096">
        <ele>755.2529297</ele>
        <time>2016-05-20T08:42:41Z</time>
      </trkpt>
      <trkpt lat="44.56443" lon="6.10138">
        <ele>755.7336426</ele>
        <time>2016-05-20T08:42:56Z</time>
      </trkpt>
      <trkpt lat="44.56444" lon="6.10139">
        <ele>756.2141113</ele>
        <time>2016-05-20T08:43:48Z</time>
      </trkpt>
      <trkpt lat="44.5644" lon="6.1012">
        <ele>756.2141113</ele>
        <time>2016-05-20T08:43:55Z</time>
      </trkpt>
      <trkpt lat="44.56417" lon="6.1005">
        <ele>756.2141113</ele>
        <time>2016-05-20T08:44:12Z</time>
      </trkpt>
      <trkpt lat="44.56404" lon="6.10031">
        <ele>756.2141113</ele>
        <time>2016-05-20T08:44:17Z</time>
      </trkpt>
      <trkpt lat="44.5638" lon="6.10047">
        <ele>755.2529297</ele>
        <time>2016-05-20T08:44:25Z</time>
      </trkpt>
      <trkpt lat="44.56349" lon="6.10133">
        <ele>756.2141113</ele>
        <time>2016-05-20T08:44:44Z</time>
      </trkpt>
      <trkpt lat="44.56339" lon="6.10208">
        <ele>757.65625</ele>
        <time>2016-05-20T08:45:02Z</time>
      </trkpt>
      <trkpt lat="44.56349" lon="6.10329">
        <ele>759.5788574</ele>
        <time>2016-05-20T08:45:30Z</time>
      </trkpt>
      <trkpt lat="44.56358" lon="6.10434">
        <ele>761.5014648</ele>
        <time>2016-05-20T08:45:55Z</time>
      </trkpt>
      <trkpt lat="44.56367" lon="6.10546">
        <ele>761.5014648</ele>
        <time>2016-05-20T08:46:21Z</time>
      </trkpt>
      <trkpt lat="44.56359" lon="6.10625">
        <ele>763.904541</ele>
        <time>2016-05-20T08:46:41Z</time>
      </trkpt>
      <trkpt lat="44.5634" lon="6.10704">
        <ele>763.904541</ele>
        <time>2016-05-20T08:47:00Z</time>
      </trkpt>
      <trkpt lat="44.56318" lon="6.10784">
        <ele>764.8662109</ele>
        <time>2016-05-20T08:47:21Z</time>
      </trkpt>
      <trkpt lat="44.56279" lon="6.10834">
        <ele>767.75</ele>
        <time>2016-05-20T08:47:41Z</time>
      </trkpt>
      <trkpt lat="44.56258" lon="6.1092">
        <ele>768.7114258</ele>
        <time>2016-05-20T08:48:05Z</time>
      </trkpt>
      <trkpt lat="44.56249" lon="6.11003">
        <ele>770.1533203</ele>
        <time>2016-05-20T08:48:25Z</time>
      </trkpt>
      <trkpt lat="44.56245" lon="6.11048">
        <ele>773.5180664</ele>
        <time>2016-05-20T08:48:38Z</time>
      </trkpt>
      <trkpt lat="44.56243" lon="6.11072">
        <ele>774.479248</ele>
        <time>2016-05-20T08:48:46Z</time>
      </trkpt>
      <trkpt lat="44.56248" lon="6.11089">
        <ele>773.9985352</ele>
        <time>2016-05-20T08:48:51Z</time>
      </trkpt>
      <trkpt lat="44.5627" lon="6.11158">
        <ele>774.479248</ele>
        <time>2016-05-20T08:49:10Z</time>
      </trkpt>
      <trkpt lat="44.56298" lon="6.11243">
        <ele>777.3632813</ele>
        <time>2016-05-20T08:49:36Z</time>
      </trkpt>
      <trkpt lat="44.56318" lon="6.11306">
        <ele>780.7280273</ele>
        <time>2016-05-20T08:49:57Z</time>
      </trkpt>
      <trkpt lat="44.56324" lon="6.11358">
        <ele>782.1699219</ele>
        <time>2016-05-20T08:50:17Z</time>
      </trkpt>
      <trkpt lat="44.56308" lon="6.11418">
        <ele>784.0925293</ele>
        <time>2016-05-20T08:50:38Z</time>
      </trkpt>
      <trkpt lat="44.56294" lon="6.11467">
        <ele>787.4570313</ele>
        <time>2016-05-20T08:50:57Z</time>
      </trkpt>
      <trkpt lat="44.56276" lon="6.11512">
        <ele>790.3410645</ele>
        <time>2016-05-20T08:51:17Z</time>
      </trkpt>
      <trkpt lat="44.56257" lon="6.11577">
        <ele>791.782959</ele>
        <time>2016-05-20T08:51:41Z</time>
      </trkpt>
      <trkpt lat="44.56245" lon="6.11644">
        <ele>792.2636719</ele>
        <time>2016-05-20T08:52:02Z</time>
      </trkpt>
      <trkpt lat="44.56216" lon="6.11679">
        <ele>792.7443848</ele>
        <time>2016-05-20T08:52:20Z</time>
      </trkpt>
      <trkpt lat="44.56211" lon="6.11709">
        <ele>794.1862793</ele>
        <time>2016-05-20T08:52:30Z</time>
      </trkpt>
      <trkpt lat="44.5625" lon="6.11761">
        <ele>795.6281738</ele>
        <time>2016-05-20T08:52:49Z</time>
      </trkpt>
      <trkpt lat="44.56284" lon="6.1182">
        <ele>796.5898438</ele>
        <time>2016-05-20T08:53:10Z</time>
      </trkpt>
      <trkpt lat="44.5629" lon="6.11859">
        <ele>798.9929199</ele>
        <time>2016-05-20T08:53:24Z</time>
      </trkpt>
      <trkpt lat="44.56292" lon="6.11909">
        <ele>801.8769531</ele>
        <time>2016-05-20T08:53:43Z</time>
      </trkpt>
      <trkpt lat="44.56277" lon="6.11964">
        <ele>804.2802734</ele>
        <time>2016-05-20T08:54:06Z</time>
      </trkpt>
      <trkpt lat="44.56275" lon="6.11968">
        <ele>804.2802734</ele>
        <time>2016-05-20T08:54:08Z</time>
      </trkpt>
      <trkpt lat="44.56264" lon="6.1201">
        <ele>808.605957</ele>
        <time>2016-05-20T08:54:27Z</time>
      </trkpt>
      <trkpt lat="44.56272" lon="6.12062">
        <ele>811.4899902</ele>
        <time>2016-05-20T08:54:48Z</time>
      </trkpt>
      <trkpt lat="44.5628" lon="6.12097">
        <ele>813.4128418</ele>
        <time>2016-05-20T08:55:03Z</time>
      </trkpt>
      <trkpt lat="44.56296" lon="6.12141">
        <ele>816.2966309</ele>
        <time>2016-05-20T08:55:21Z</time>
      </trkpt>
      <trkpt lat="44.56313" lon="6.122">
        <ele>817.2580566</ele>
        <time>2016-05-20T08:55:44Z</time>
      </trkpt>
      <trkpt lat="44.56338" lon="6.12248">
        <ele>820.6225586</ele>
        <time>2016-05-20T08:56:07Z</time>
      </trkpt>
      <trkpt lat="44.56366" lon="6.12287">
        <ele>823.0258789</ele>
        <time>2016-05-20T08:56:29Z</time>
      </trkpt>
      <trkpt lat="44.56384" lon="6.12328">
        <ele>824.9484863</ele>
        <time>2016-05-20T08:56:47Z</time>
      </trkpt>
      <trkpt lat="44.56406" lon="6.12374">
        <ele>827.8322754</ele>
        <time>2016-05-20T08:57:08Z</time>
      </trkpt>
      <trkpt lat="44.56421" lon="6.1242">
        <ele>830.7165527</ele>
        <time>2016-05-20T08:57:28Z</time>
      </trkpt>
      <trkpt lat="44.56447" lon="6.12458">
        <ele>832.1584473</ele>
        <time>2016-05-20T08:57:48Z</time>
      </trkpt>
      <trkpt lat="44.56458" lon="6.12457">
        <ele>831.1972656</ele>
        <time>2016-05-20T08:57:51Z</time>
      </trkpt>
      <trkpt lat="44.56493" lon="6.12429">
        <ele>831.1972656</ele>
        <time>2016-05-20T08:58:04Z</time>
      </trkpt>
      <trkpt lat="44.56524" lon="6.1242">
        <ele>834.5617676</ele>
        <time>2016-05-20T08:58:21Z</time>
      </trkpt>
      <trkpt lat="44.56553" lon="6.12445">
        <ele>837.4455566</ele>
        <time>2016-05-20T08:58:39Z</time>
      </trkpt>
      <trkpt lat="44.56573" lon="6.12467">
        <ele>839.848877</ele>
        <time>2016-05-20T08:58:53Z</time>
      </trkpt>
      <trkpt lat="44.56596" lon="6.12498">
        <ele>843.2133789</ele>
        <time>2016-05-20T08:59:11Z</time>
      </trkpt>
      <trkpt lat="44.56618" lon="6.12529">
        <ele>845.6169434</ele>
        <time>2016-05-20T08:59:30Z</time>
      </trkpt>
      <trkpt lat="44.56634" lon="6.12552">
        <ele>848.5007324</ele>
        <time>2016-05-20T08:59:45Z</time>
      </trkpt>
      <trkpt lat="44.56642" lon="6.12565">
        <ele>849.4621582</ele>
        <time>2016-05-20T08:59:54Z</time>
      </trkpt>
      <trkpt lat="44.56656" lon="6.12584">
        <ele>851.8654785</ele>
        <time>2016-05-20T09:00:06Z</time>
      </trkpt>
      <trkpt lat="44.56672" lon="6.12607">
        <ele>853.7880859</ele>
        <time>2016-05-20T09:00:20Z</time>
      </trkpt>
      <trkpt lat="44.56705" lon="6.12637">
        <ele>853.7880859</ele>
        <time>2016-05-20T09:00:39Z</time>
      </trkpt>
      <trkpt lat="44.56714" lon="6.12642">
        <ele>853.307373</ele>
        <time>2016-05-20T09:00:41Z</time>
      </trkpt>
      <trkpt lat="44.56791" lon="6.12679">
        <ele>850.423584</ele>
        <time>2016-05-20T09:00:56Z</time>
      </trkpt>
      <trkpt lat="44.56796" lon="6.12682">
        <ele>850.423584</ele>
        <time>2016-05-20T09:00:57Z</time>
      </trkpt>
      <trkpt lat="44.56811" lon="6.12709">
        <ele>849.9428711</ele>
        <time>2016-05-20T09:01:03Z</time>
      </trkpt>
      <trkpt lat="44.56826" lon="6.12837">
        <ele>848.0202637</ele>
        <time>2016-05-20T09:01:23Z</time>
      </trkpt>
      <trkpt lat="44.56852" lon="6.12961">
        <ele>846.5783691</ele>
        <time>2016-05-20T09:01:45Z</time>
      </trkpt>
      <trkpt lat="44.56869" lon="6.13075">
        <ele>846.0976563</ele>
        <time>2016-05-20T09:02:06Z</time>
      </trkpt>
      <trkpt lat="44.56867" lon="6.13183">
        <ele>846.0976563</ele>
        <time>2016-05-20T09:02:27Z</time>
      </trkpt>
      <trkpt lat="44.56874" lon="6.13254">
        <ele>846.5783691</ele>
        <time>2016-05-20T09:02:43Z</time>
      </trkpt>
      <trkpt lat="44.56878" lon="6.13305">
        <ele>847.5395508</ele>
        <time>2016-05-20T09:02:57Z</time>
      </trkpt>
      <trkpt lat="44.56885" lon="6.13345">
        <ele>849.4621582</ele>
        <time>2016-05-20T09:03:08Z</time>
      </trkpt>
      <trkpt lat="44.56893" lon="6.13415">
        <ele>850.423584</ele>
        <time>2016-05-20T09:03:27Z</time>
      </trkpt>
      <trkpt lat="44.56905" lon="6.13489">
        <ele>851.3847656</ele>
        <time>2016-05-20T09:03:46Z</time>
      </trkpt>
      <trkpt lat="44.56918" lon="6.13561">
        <ele>850.423584</ele>
        <time>2016-05-20T09:04:05Z</time>
      </trkpt>
      <trkpt lat="44.56924" lon="6.13611">
        <ele>853.307373</ele>
        <time>2016-05-20T09:04:21Z</time>
      </trkpt>
      <trkpt lat="44.56924" lon="6.13659">
        <ele>855.7106934</ele>
        <time>2016-05-20T09:04:39Z</time>
      </trkpt>
      <trkpt lat="44.56931" lon="6.1372">
        <ele>857.1525879</ele>
        <time>2016-05-20T09:05:00Z</time>
      </trkpt>
      <trkpt lat="44.56939" lon="6.13798">
        <ele>858.5944824</ele>
        <time>2016-05-20T09:05:24Z</time>
      </trkpt>
      <trkpt lat="44.56945" lon="6.13857">
        <ele>859.5559082</ele>
        <time>2016-05-20T09:05:42Z</time>
      </trkpt>
      <trkpt lat="44.56948" lon="6.13931">
        <ele>860.517334</ele>
        <time>2016-05-20T09:06:05Z</time>
      </trkpt>
      <trkpt lat="44.5696" lon="6.13976">
        <ele>861.9594727</ele>
        <time>2016-05-20T09:06:21Z</time>
      </trkpt>
      <trkpt lat="44.56971" lon="6.14026">
        <ele>863.8818359</ele>
        <time>2016-05-20T09:06:38Z</time>
      </trkpt>
      <trkpt lat="44.56971" lon="6.14063">
        <ele>865.3239746</ele>
        <time>2016-05-20T09:06:51Z</time>
      </trkpt>
      <trkpt lat="44.56965" lon="6.14127">
        <ele>867.7270508</ele>
        <time>2016-05-20T09:07:13Z</time>
      </trkpt>
      <trkpt lat="44.56964" lon="6.14146">
        <ele>869.1691895</ele>
        <time>2016-05-20T09:07:20Z</time>
      </trkpt>
      <trkpt lat="44.56964" lon="6.1418">
        <ele>870.611084</ele>
        <time>2016-05-20T09:07:32Z</time>
      </trkpt>
      <trkpt lat="44.56963" lon="6.14224">
        <ele>873.4951172</ele>
        <time>2016-05-20T09:07:49Z</time>
      </trkpt>
      <trkpt lat="44.56938" lon="6.14269">
        <ele>875.4174805</ele>
        <time>2016-05-20T09:08:08Z</time>
      </trkpt>
      <trkpt lat="44.56899" lon="6.14296">
        <ele>875.8981934</ele>
        <time>2016-05-20T09:08:25Z</time>
      </trkpt>
      <trkpt lat="44.56861" lon="6.1435">
        <ele>877.3405762</ele>
        <time>2016-05-20T09:08:46Z</time>
      </trkpt>
      <trkpt lat="44.56859" lon="6.14352">
        <ele>877.3405762</ele>
        <time>2016-05-20T09:08:47Z</time>
      </trkpt>
      <trkpt lat="44.56833" lon="6.14415">
        <ele>879.2629395</ele>
        <time>2016-05-20T09:09:08Z</time>
      </trkpt>
      <trkpt lat="44.56807" lon="6.14482">
        <ele>882.1469727</ele>
        <time>2016-05-20T09:09:31Z</time>
      </trkpt>
      <trkpt lat="44.56811" lon="6.14546">
        <ele>884.0695801</ele>
        <time>2016-05-20T09:09:51Z</time>
      </trkpt>
      <trkpt lat="44.56812" lon="6.14615">
        <ele>884.550293</ele>
        <time>2016-05-20T09:10:08Z</time>
      </trkpt>
      <trkpt lat="44.56808" lon="6.1471">
        <ele>884.550293</ele>
        <time>2016-05-20T09:10:29Z</time>
      </trkpt>
      <trkpt lat="44.56804" lon="6.1473">
        <ele>884.550293</ele>
        <time>2016-05-20T09:10:34Z</time>
      </trkpt>
      <trkpt lat="44.56774" lon="6.14798">
        <ele>885.0310059</ele>
        <time>2016-05-20T09:10:52Z</time>
      </trkpt>
      <trkpt lat="44.56766" lon="6.14863">
        <ele>885.9921875</ele>
        <time>2016-05-20T09:11:08Z</time>
      </trkpt>
      <trkpt lat="44.56754" lon="6.14951">
        <ele>886.9533691</ele>
        <time>2016-05-20T09:11:27Z</time>
      </trkpt>
      <trkpt lat="44.56752" lon="6.14956">
        <ele>886.4729004</ele>
        <time>2016-05-20T09:11:28Z</time>
      </trkpt>
      <trkpt lat="44.56739" lon="6.15012">
        <ele>885.5114746</ele>
        <time>2016-05-20T09:11:38Z</time>
      </trkpt>
      <trkpt lat="44.56727" lon="6.15041">
        <ele>885.5114746</ele>
        <time>2016-05-20T09:11:43Z</time>
      </trkpt>
      <trkpt lat="44.56712" lon="6.15065">
        <ele>885.5114746</ele>
        <time>2016-05-20T09:11:47Z</time>
      </trkpt>
      <trkpt lat="44.56673" lon="6.15129">
        <ele>884.0695801</ele>
        <time>2016-05-20T09:11:58Z</time>
      </trkpt>
      <trkpt lat="44.56667" lon="6.15152">
        <ele>884.0695801</ele>
        <time>2016-05-20T09:12:02Z</time>
      </trkpt>
      <trkpt lat="44.56648" lon="6.15185">
        <ele>885.5114746</ele>
        <time>2016-05-20T09:12:15Z</time>
      </trkpt>
      <trkpt lat="44.56623" lon="6.15208">
        <ele>888.8762207</ele>
        <time>2016-05-20T09:12:33Z</time>
      </trkpt>
      <trkpt lat="44.56595" lon="6.15214">
        <ele>889.8374023</ele>
        <time>2016-05-20T09:12:49Z</time>
      </trkpt>
      <trkpt lat="44.56571" lon="6.15215">
        <ele>890.798584</ele>
        <time>2016-05-20T09:13:03Z</time>
      </trkpt>
      <trkpt lat="44.5655" lon="6.15218">
        <ele>892.2409668</ele>
        <time>2016-05-20T09:13:15Z</time>
      </trkpt>
      <trkpt lat="44.56526" lon="6.15235">
        <ele>895.6054688</ele>
        <time>2016-05-20T09:13:29Z</time>
      </trkpt>
      <trkpt lat="44.56505" lon="6.15282">
        <ele>897.5280762</ele>
        <time>2016-05-20T09:13:50Z</time>
      </trkpt>
      <trkpt lat="44.56502" lon="6.15294">
        <ele>898.4892578</ele>
        <time>2016-05-20T09:13:55Z</time>
      </trkpt>
      <trkpt lat="44.56496" lon="6.15312">
        <ele>899.4506836</ele>
        <time>2016-05-20T09:14:03Z</time>
      </trkpt>
      <trkpt lat="44.56479" lon="6.15349">
        <ele>901.8540039</ele>
        <time>2016-05-20T09:14:20Z</time>
      </trkpt>
      <trkpt lat="44.56473" lon="6.15361">
        <ele>903.2958984</ele>
        <time>2016-05-20T09:14:26Z</time>
      </trkpt>
      <trkpt lat="44.56463" lon="6.15379">
        <ele>904.737793</ele>
        <time>2016-05-20T09:14:35Z</time>
      </trkpt>
      <trkpt lat="44.56448" lon="6.15401">
        <ele>906.6604004</ele>
        <time>2016-05-20T09:14:47Z</time>
      </trkpt>
      <trkpt lat="44.56433" lon="6.15444">
        <ele>909.0639648</ele>
        <time>2016-05-20T09:15:07Z</time>
      </trkpt>
      <trkpt lat="44.56418" lon="6.1549">
        <ele>910.9865723</ele>
        <time>2016-05-20T09:15:26Z</time>
      </trkpt>
      <trkpt lat="44.56416" lon="6.15496">
        <ele>911.4672852</ele>
        <time>2016-05-20T09:15:29Z</time>
      </trkpt>
      <trkpt lat="44.56406" lon="6.15522">
        <ele>912.9091797</ele>
        <time>2016-05-20T09:15:42Z</time>
      </trkpt>
      <trkpt lat="44.56386" lon="6.15547">
        <ele>916.7543945</ele>
        <time>2016-05-20T09:15:59Z</time>
      </trkpt>
      <trkpt lat="44.56379" lon="6.15558">
        <ele>918.677002</ele>
        <time>2016-05-20T09:16:07Z</time>
      </trkpt>
      <trkpt lat="44.56363" lon="6.15567">
        <ele>922.0415039</ele>
        <time>2016-05-20T09:16:20Z</time>
      </trkpt>
      <trkpt lat="44.56348" lon="6.1558">
        <ele>923.9641113</ele>
        <time>2016-05-20T09:16:32Z</time>
      </trkpt>
      <trkpt lat="44.56343" lon="6.15582">
        <ele>924.4450684</ele>
        <time>2016-05-20T09:16:35Z</time>
      </trkpt>
      <trkpt lat="44.56325" lon="6.15595">
        <ele>926.3676758</ele>
        <time>2016-05-20T09:16:49Z</time>
      </trkpt>
      <trkpt lat="44.56322" lon="6.15599">
        <ele>927.3291016</ele>
        <time>2016-05-20T09:16:52Z</time>
      </trkpt>
      <trkpt lat="44.56313" lon="6.15604">
        <ele>927.3291016</ele>
        <time>2016-05-20T09:16:58Z</time>
      </trkpt>
      <trkpt lat="44.56291" lon="6.15628">
        <ele>929.7321777</ele>
        <time>2016-05-20T09:17:17Z</time>
      </trkpt>
      <trkpt lat="44.56283" lon="6.15636">
        <ele>930.6936035</ele>
        <time>2016-05-20T09:17:24Z</time>
      </trkpt>
      <trkpt lat="44.56254" lon="6.15646">
        <ele>933.5773926</ele>
        <time>2016-05-20T09:17:44Z</time>
      </trkpt>
      <trkpt lat="44.56225" lon="6.15676">
        <ele>936.9418945</ele>
        <time>2016-05-20T09:18:07Z</time>
      </trkpt>
      <trkpt lat="44.56201" lon="6.15707">
        <ele>939.8259277</ele>
        <time>2016-05-20T09:18:29Z</time>
      </trkpt>
      <trkpt lat="44.56181" lon="6.15738">
        <ele>942.7102051</ele>
        <time>2016-05-20T09:18:48Z</time>
      </trkpt>
      <trkpt lat="44.56161" lon="6.15776">
        <ele>943.6713867</ele>
        <time>2016-05-20T09:19:07Z</time>
      </trkpt>
      <trkpt lat="44.56145" lon="6.15809">
        <ele>947.0358887</ele>
        <time>2016-05-20T09:19:25Z</time>
      </trkpt>
      <trkpt lat="44.56123" lon="6.15843">
        <ele>949.9199219</ele>
        <time>2016-05-20T09:19:46Z</time>
      </trkpt>
      <trkpt lat="44.56101" lon="6.15873">
        <ele>953.2844238</ele>
        <time>2016-05-20T09:20:07Z</time>
      </trkpt>
      <trkpt lat="44.56075" lon="6.15902">
        <ele>955.6877441</ele>
        <time>2016-05-20T09:20:29Z</time>
      </trkpt>
      <trkpt lat="44.56048" lon="6.15926">
        <ele>957.6105957</ele>
        <time>2016-05-20T09:20:48Z</time>
      </trkpt>
      <trkpt lat="44.56019" lon="6.15958">
        <ele>960.0136719</ele>
        <time>2016-05-20T09:21:09Z</time>
      </trkpt>
      <trkpt lat="44.55995" lon="6.15986">
        <ele>963.378418</ele>
        <time>2016-05-20T09:21:28Z</time>
      </trkpt>
      <trkpt lat="44.55969" lon="6.16006">
        <ele>966.7429199</ele>
        <time>2016-05-20T09:21:47Z</time>
      </trkpt>
      <trkpt lat="44.55948" lon="6.16026">
        <ele>969.6269531</ele>
        <time>2016-05-20T09:22:05Z</time>
      </trkpt>
      <trkpt lat="44.55928" lon="6.16048">
        <ele>972.9916992</ele>
        <time>2016-05-20T09:22:24Z</time>
      </trkpt>
      <trkpt lat="44.55916" lon="6.16054">
        <ele>974.4335938</ele>
        <time>2016-05-20T09:22:33Z</time>
      </trkpt>
      <trkpt lat="44.55891" lon="6.1607">
        <ele>977.317627</ele>
        <time>2016-05-20T09:22:52Z</time>
      </trkpt>
      <trkpt lat="44.55875" lon="6.16083">
        <ele>979.2399902</ele>
        <time>2016-05-20T09:23:05Z</time>
      </trkpt>
      <trkpt lat="44.55843" lon="6.16103">
        <ele>982.6047363</ele>
        <time>2016-05-20T09:23:28Z</time>
      </trkpt>
      <trkpt lat="44.5581" lon="6.16117">
        <ele>985.4885254</ele>
        <time>2016-05-20T09:23:50Z</time>
      </trkpt>
      <trkpt lat="44.55799" lon="6.16118">
        <ele>986.4499512</ele>
        <time>2016-05-20T09:23:58Z</time>
      </trkpt>
      <trkpt lat="44.55794" lon="6.16118">
        <ele>986.9304199</ele>
        <time>2016-05-20T09:24:02Z</time>
      </trkpt>
      <trkpt lat="44.55765" lon="6.16121">
        <ele>990.7758789</ele>
        <time>2016-05-20T09:24:24Z</time>
      </trkpt>
      <trkpt lat="44.55737" lon="6.16113">
        <ele>993.6599121</ele>
        <time>2016-05-20T09:24:45Z</time>
      </trkpt>
      <trkpt lat="44.55713" lon="6.1609">
        <ele>995.1018066</ele>
        <time>2016-05-20T09:25:02Z</time>
      </trkpt>
      <trkpt lat="44.55677" lon="6.16079">
        <ele>996.5439453</ele>
        <time>2016-05-20T09:25:21Z</time>
      </trkpt>
      <trkpt lat="44.55647" lon="6.16066">
        <ele>999.4277344</ele>
        <time>2016-05-20T09:25:40Z</time>
      </trkpt>
      <trkpt lat="44.55617" lon="6.16047">
        <ele>1002.3115234</ele>
        <time>2016-05-20T09:26:01Z</time>
      </trkpt>
      <trkpt lat="44.55591" lon="6.16024">
        <ele>1005.1958008</ele>
        <time>2016-05-20T09:26:21Z</time>
      </trkpt>
      <trkpt lat="44.5557" lon="6.1601">
        <ele>1007.1184082</ele>
        <time>2016-05-20T09:26:37Z</time>
      </trkpt>
      <trkpt lat="44.55537" lon="6.15989">
        <ele>1010.0021973</ele>
        <time>2016-05-20T09:27:02Z</time>
      </trkpt>
      <trkpt lat="44.55504" lon="6.15988">
        <ele>1013.3669434</ele>
        <time>2016-05-20T09:27:23Z</time>
      </trkpt>
      <trkpt lat="44.55474" lon="6.16004">
        <ele>1015.7702637</ele>
        <time>2016-05-20T09:27:43Z</time>
      </trkpt>
      <trkpt lat="44.55449" lon="6.16041">
        <ele>1018.1733398</ele>
        <time>2016-05-20T09:28:05Z</time>
      </trkpt>
      <trkpt lat="44.55429" lon="6.16074">
        <ele>1019.1347656</ele>
        <time>2016-05-20T09:28:22Z</time>
      </trkpt>
      <trkpt lat="44.55415" lon="6.16132">
        <ele>1018.1733398</ele>
        <time>2016-05-20T09:28:35Z</time>
      </trkpt>
      <trkpt lat="44.55411" lon="6.16176">
        <ele>1017.692627</ele>
        <time>2016-05-20T09:28:43Z</time>
      </trkpt>
      <trkpt lat="44.55407" lon="6.16198">
        <ele>1017.2121582</ele>
        <time>2016-05-20T09:28:47Z</time>
      </trkpt>
      <trkpt lat="44.55385" lon="6.16186">
        <ele>1015.7702637</ele>
        <time>2016-05-20T09:28:52Z</time>
      </trkpt>
      <trkpt lat="44.55374" lon="6.16175">
        <ele>1014.8088379</ele>
        <time>2016-05-20T09:28:54Z</time>
      </trkpt>
      <trkpt lat="44.55362" lon="6.16172">
        <ele>1012.8862305</ele>
        <time>2016-05-20T09:28:56Z</time>
      </trkpt>
      <trkpt lat="44.55341" lon="6.1618">
        <ele>1011.4443359</ele>
        <time>2016-05-20T09:28:59Z</time>
      </trkpt>
      <trkpt lat="44.55315" lon="6.16202">
        <ele>1010.0021973</ele>
        <time>2016-05-20T09:29:03Z</time>
      </trkpt>
      <trkpt lat="44.55295" lon="6.16233">
        <ele>1009.5217285</ele>
        <time>2016-05-20T09:29:07Z</time>
      </trkpt>
      <trkpt lat="44.55287" lon="6.16249">
        <ele>1009.0410156</ele>
        <time>2016-05-20T09:29:09Z</time>
      </trkpt>
      <trkpt lat="44.55253" lon="6.16265">
        <ele>1010.0021973</ele>
        <time>2016-05-20T09:29:16Z</time>
      </trkpt>
      <trkpt lat="44.5525" lon="6.16262">
        <ele>1010.0021973</ele>
        <time>2016-05-20T09:29:17Z</time>
      </trkpt>
      <trkpt lat="44.55223" lon="6.16247">
        <ele>1011.4443359</ele>
        <time>2016-05-20T09:29:32Z</time>
      </trkpt>
      <trkpt lat="44.55189" lon="6.16262">
        <ele>1013.3669434</ele>
        <time>2016-05-20T09:29:52Z</time>
      </trkpt>
      <trkpt lat="44.55159" lon="6.16301">
        <ele>1016.2507324</ele>
        <time>2016-05-20T09:30:15Z</time>
      </trkpt>
      <trkpt lat="44.55136" lon="6.16342">
        <ele>1018.1733398</ele>
        <time>2016-05-20T09:30:36Z</time>
      </trkpt>
      <trkpt lat="44.55109" lon="6.1639">
        <ele>1021.0576172</ele>
        <time>2016-05-20T09:31:00Z</time>
      </trkpt>
      <trkpt lat="44.55084" lon="6.16432">
        <ele>1022.4995117</ele>
        <time>2016-05-20T09:31:20Z</time>
      </trkpt>
      <trkpt lat="44.55063" lon="6.16476">
        <ele>1025.8640137</ele>
        <time>2016-05-20T09:31:42Z</time>
      </trkpt>
      <trkpt lat="44.55038" lon="6.16527">
        <ele>1028.7480469</ele>
        <time>2016-05-20T09:32:07Z</time>
      </trkpt>
      <trkpt lat="44.55018" lon="6.16577">
        <ele>1032.1125488</ele>
        <time>2016-05-20T09:32:31Z</time>
      </trkpt>
      <trkpt lat="44.54982" lon="6.16613">
        <ele>1034.996582</ele>
        <time>2016-05-20T09:32:56Z</time>
      </trkpt>
      <trkpt lat="44.54944" lon="6.16632">
        <ele>1037.8806152</ele>
        <time>2016-05-20T09:33:19Z</time>
      </trkpt>
      <trkpt lat="44.54912" lon="6.16646">
        <ele>1040.2839355</ele>
        <time>2016-05-20T09:33:38Z</time>
      </trkpt>
      <trkpt lat="44.54873" lon="6.16667">
        <ele>1042.206543</ele>
        <time>2016-05-20T09:34:01Z</time>
      </trkpt>
      <trkpt lat="44.54847" lon="6.16676">
        <ele>1043.6484375</ele>
        <time>2016-05-20T09:34:16Z</time>
      </trkpt>
      <trkpt lat="44.54815" lon="6.1669">
        <ele>1044.6096191</ele>
        <time>2016-05-20T09:34:33Z</time>
      </trkpt>
      <trkpt lat="44.54766" lon="6.16704">
        <ele>1043.1677246</ele>
        <time>2016-05-20T09:34:45Z</time>
      </trkpt>
      <trkpt lat="44.54676" lon="6.1672">
        <ele>1039.8032227</ele>
        <time>2016-05-20T09:34:56Z</time>
      </trkpt>
      <trkpt lat="44.54642" lon="6.16727">
        <ele>1038.3613281</ele>
        <time>2016-05-20T09:35:00Z</time>
      </trkpt>
      <trkpt lat="44.54556" lon="6.16753">
        <ele>1037.8806152</ele>
        <time>2016-05-20T09:35:13Z</time>
      </trkpt>
      <trkpt lat="44.54492" lon="6.16785">
        <ele>1039.3225098</ele>
        <time>2016-05-20T09:35:29Z</time>
      </trkpt>
      <trkpt lat="44.54451" lon="6.16855">
        <ele>1038.3613281</ele>
        <time>2016-05-20T09:35:43Z</time>
      </trkpt>
      <trkpt lat="44.54448" lon="6.1687">
        <ele>1038.3613281</ele>
        <time>2016-05-20T09:35:45Z</time>
      </trkpt>
      <trkpt lat="44.54436" lon="6.17029">
        <ele>1035.4770508</ele>
        <time>2016-05-20T09:36:04Z</time>
      </trkpt>
      <trkpt lat="44.54435" lon="6.17068">
        <ele>1034.996582</ele>
        <time>2016-05-20T09:36:08Z</time>
      </trkpt>
      <trkpt lat="44.5446" lon="6.17217">
        <ele>1033.5544434</ele>
        <time>2016-05-20T09:36:24Z</time>
      </trkpt>
      <trkpt lat="44.54471" lon="6.17279">
        <ele>1032.5932617</ele>
        <time>2016-05-20T09:36:31Z</time>
      </trkpt>
      <trkpt lat="44.5447" lon="6.17319">
        <ele>1030.6706543</ele>
        <time>2016-05-20T09:36:35Z</time>
      </trkpt>
      <trkpt lat="44.54462" lon="6.17365">
        <ele>1028.7480469</ele>
        <time>2016-05-20T09:36:39Z</time>
      </trkpt>
      <trkpt lat="44.54456" lon="6.17399">
        <ele>1026.8254395</ele>
        <time>2016-05-20T09:36:42Z</time>
      </trkpt>
      <trkpt lat="44.54454" lon="6.17422">
        <ele>1024.902832</ele>
        <time>2016-05-20T09:36:44Z</time>
      </trkpt>
      <trkpt lat="44.54454" lon="6.17446">
        <ele>1022.9802246</ele>
        <time>2016-05-20T09:36:46Z</time>
      </trkpt>
      <trkpt lat="44.54453" lon="6.1747">
        <ele>1021.0576172</ele>
        <time>2016-05-20T09:36:48Z</time>
      </trkpt>
      <trkpt lat="44.54442" lon="6.17529">
        <ele>1018.6540527</ele>
        <time>2016-05-20T09:36:53Z</time>
      </trkpt>
      <trkpt lat="44.54436" lon="6.17552">
        <ele>1016.7314453</ele>
        <time>2016-05-20T09:36:55Z</time>
      </trkpt>
      <trkpt lat="44.54427" lon="6.17584">
        <ele>1014.328125</ele>
        <time>2016-05-20T09:36:58Z</time>
      </trkpt>
      <trkpt lat="44.54418" lon="6.17626">
        <ele>1011.9250488</ele>
        <time>2016-05-20T09:37:02Z</time>
      </trkpt>
      <trkpt lat="44.54415" lon="6.17653">
        <ele>1009.5217285</ele>
        <time>2016-05-20T09:37:05Z</time>
      </trkpt>
      <trkpt lat="44.54415" lon="6.1768">
        <ele>1008.079834</ele>
        <time>2016-05-20T09:37:08Z</time>
      </trkpt>
      <trkpt lat="44.54394" lon="6.17694">
        <ele>1006.1569824</ele>
        <time>2016-05-20T09:37:15Z</time>
      </trkpt>
      <trkpt lat="44.5439" lon="6.17675">
        <ele>1006.1569824</ele>
        <time>2016-05-20T09:37:18Z</time>
      </trkpt>
      <trkpt lat="44.54385" lon="6.17601">
        <ele>1005.1958008</ele>
        <time>2016-05-20T09:37:27Z</time>
      </trkpt>
      <trkpt lat="44.54381" lon="6.17576">
        <ele>1003.7536621</ele>
        <time>2016-05-20T09:37:30Z</time>
      </trkpt>
      <trkpt lat="44.54375" lon="6.17559">
        <ele>1003.2729492</ele>
        <time>2016-05-20T09:37:32Z</time>
      </trkpt>
      <trkpt lat="44.54363" lon="6.17533">
        <ele>1002.7922363</ele>
        <time>2016-05-20T09:37:35Z</time>
      </trkpt>
      <trkpt lat="44.54338" lon="6.17507">
        <ele>1000.3891602</ele>
        <time>2016-05-20T09:37:39Z</time>
      </trkpt>
      <trkpt lat="44.54323" lon="6.17497">
        <ele>998.4663086</ele>
        <time>2016-05-20T09:37:41Z</time>
      </trkpt>
      <trkpt lat="44.54279" lon="6.17488">
        <ele>995.5825195</ele>
        <time>2016-05-20T09:37:46Z</time>
      </trkpt>
      <trkpt lat="44.54253" lon="6.17487">
        <ele>993.1791992</ele>
        <time>2016-05-20T09:37:49Z</time>
      </trkpt>
      <trkpt lat="44.54223" lon="6.17478">
        <ele>990.7758789</ele>
        <time>2016-05-20T09:37:53Z</time>
      </trkpt>
      <trkpt lat="44.54217" lon="6.17476">
        <ele>989.3339844</ele>
        <time>2016-05-20T09:37:54Z</time>
      </trkpt>
      <trkpt lat="44.54205" lon="6.17474">
        <ele>987.8918457</ele>
        <time>2016-05-20T09:37:56Z</time>
      </trkpt>
      <trkpt lat="44.54192" lon="6.17501">
        <ele>985.4885254</ele>
        <time>2016-05-20T09:38:01Z</time>
      </trkpt>
      <trkpt lat="44.54199" lon="6.17511">
        <ele>984.5273438</ele>
        <time>2016-05-20T09:38:03Z</time>
      </trkpt>
      <trkpt lat="44.54204" lon="6.17514">
        <ele>984.0466309</ele>
        <time>2016-05-20T09:38:04Z</time>
      </trkpt>
      <trkpt lat="44.54219" lon="6.17524">
        <ele>983.0852051</ele>
        <time>2016-05-20T09:38:07Z</time>
      </trkpt>
      <trkpt lat="44.54231" lon="6.17584">
        <ele>979.7207031</ele>
        <time>2016-05-20T09:38:14Z</time>
      </trkpt>
      <trkpt lat="44.54223" lon="6.17617">
        <ele>977.7980957</ele>
        <time>2016-05-20T09:38:17Z</time>
      </trkpt>
      <trkpt lat="44.54216" lon="6.1764">
        <ele>976.3562012</ele>
        <time>2016-05-20T09:38:19Z</time>
      </trkpt>
      <trkpt lat="44.54189" lon="6.17703">
        <ele>972.5109863</ele>
        <time>2016-05-20T09:38:25Z</time>
      </trkpt>
      <trkpt lat="44.54184" lon="6.17713">
        <ele>972.5109863</ele>
        <time>2016-05-20T09:38:26Z</time>
      </trkpt>
      <trkpt lat="44.54181" lon="6.17722">
        <ele>971.5493164</ele>
        <time>2016-05-20T09:38:27Z</time>
      </trkpt>
      <trkpt lat="44.5417" lon="6.17823">
        <ele>969.6269531</ele>
        <time>2016-05-20T09:38:37Z</time>
      </trkpt>
      <trkpt lat="44.54176" lon="6.1785">
        <ele>968.1848145</ele>
        <time>2016-05-20T09:38:40Z</time>
      </trkpt>
      <trkpt lat="44.54213" lon="6.179">
        <ele>966.7429199</ele>
        <time>2016-05-20T09:38:47Z</time>
      </trkpt>
      <trkpt lat="44.54229" lon="6.17904">
        <ele>966.262207</ele>
        <time>2016-05-20T09:38:49Z</time>
      </trkpt>
      <trkpt lat="44.54253" lon="6.1791">
        <ele>965.3010254</ele>
        <time>2016-05-20T09:38:52Z</time>
      </trkpt>
      <trkpt lat="44.54312" lon="6.17942">
        <ele>962.8977051</ele>
        <time>2016-05-20T09:39:00Z</time>
      </trkpt>
      <trkpt lat="44.54332" lon="6.1795">
        <ele>961.4558105</ele>
        <time>2016-05-20T09:39:03Z</time>
      </trkpt>
      <trkpt lat="44.54352" lon="6.17959">
        <ele>960.4943848</ele>
        <time>2016-05-20T09:39:06Z</time>
      </trkpt>
      <trkpt lat="44.54375" lon="6.17983">
        <ele>958.5717773</ele>
        <time>2016-05-20T09:39:10Z</time>
      </trkpt>
      <trkpt lat="44.54378" lon="6.17993">
        <ele>957.6105957</ele>
        <time>2016-05-20T09:39:11Z</time>
      </trkpt>
      <trkpt lat="44.54385" lon="6.18013">
        <ele>956.168457</ele>
        <time>2016-05-20T09:39:13Z</time>
      </trkpt>
      <trkpt lat="44.54418" lon="6.18058">
        <ele>953.7651367</ele>
        <time>2016-05-20T09:39:19Z</time>
      </trkpt>
      <trkpt lat="44.54445" lon="6.18095">
        <ele>950.8811035</ele>
        <time>2016-05-20T09:39:24Z</time>
      </trkpt>
      <trkpt lat="44.54457" lon="6.18106">
        <ele>949.9199219</ele>
        <time>2016-05-20T09:39:26Z</time>
      </trkpt>
      <trkpt lat="44.54493" lon="6.1812">
        <ele>949.439209</ele>
        <time>2016-05-20T09:39:31Z</time>
      </trkpt>
      <trkpt lat="44.54508" lon="6.18122">
        <ele>948.4777832</ele>
        <time>2016-05-20T09:39:33Z</time>
      </trkpt>
      <trkpt lat="44.54539" lon="6.1815">
        <ele>946.5554199</ele>
        <time>2016-05-20T09:39:38Z</time>
      </trkpt>
      <trkpt lat="44.54556" lon="6.18182">
        <ele>945.1132813</ele>
        <time>2016-05-20T09:39:42Z</time>
      </trkpt>
      <trkpt lat="44.54566" lon="6.18213">
        <ele>944.1520996</ele>
        <time>2016-05-20T09:39:45Z</time>
      </trkpt>
      <trkpt lat="44.54597" lon="6.18253">
        <ele>941.7487793</ele>
        <time>2016-05-20T09:39:50Z</time>
      </trkpt>
      <trkpt lat="44.54621" lon="6.18292">
        <ele>938.3840332</ele>
        <time>2016-05-20T09:39:55Z</time>
      </trkpt>
      <trkpt lat="44.54624" lon="6.18299">
        <ele>938.3840332</ele>
        <time>2016-05-20T09:39:56Z</time>
      </trkpt>
      <trkpt lat="44.54638" lon="6.18338">
        <ele>935.9807129</ele>
        <time>2016-05-20T09:40:01Z</time>
      </trkpt>
      <trkpt lat="44.54668" lon="6.18413">
        <ele>932.6162109</ele>
        <time>2016-05-20T09:40:09Z</time>
      </trkpt>
      <trkpt lat="44.54677" lon="6.18444">
        <ele>931.1743164</ele>
        <time>2016-05-20T09:40:12Z</time>
      </trkpt>
      <trkpt lat="44.54708" lon="6.18477">
        <ele>928.7709961</ele>
        <time>2016-05-20T09:40:18Z</time>
      </trkpt>
      <trkpt lat="44.54721" lon="6.18483">
        <ele>928.2902832</ele>
        <time>2016-05-20T09:40:20Z</time>
      </trkpt>
      <trkpt lat="44.54735" lon="6.18529">
        <ele>925.8869629</ele>
        <time>2016-05-20T09:40:26Z</time>
      </trkpt>
      <trkpt lat="44.54733" lon="6.18546">
        <ele>924.4450684</ele>
        <time>2016-05-20T09:40:28Z</time>
      </trkpt>
      <trkpt lat="44.54743" lon="6.18569">
        <ele>922.5222168</ele>
        <time>2016-05-20T09:40:31Z</time>
      </trkpt>
      <trkpt lat="44.54749" lon="6.18575">
        <ele>922.0415039</ele>
        <time>2016-05-20T09:40:32Z</time>
      </trkpt>
      <trkpt lat="44.54792" lon="6.18648">
        <ele>917.2351074</ele>
        <time>2016-05-20T09:40:41Z</time>
      </trkpt>
      <trkpt lat="44.54797" lon="6.18655">
        <ele>917.2351074</ele>
        <time>2016-05-20T09:40:42Z</time>
      </trkpt>
      <trkpt lat="44.5481" lon="6.18667">
        <ele>915.7932129</ele>
        <time>2016-05-20T09:40:44Z</time>
      </trkpt>
      <trkpt lat="44.54842" lon="6.18701">
        <ele>915.3125</ele>
        <time>2016-05-20T09:40:49Z</time>
      </trkpt>
      <trkpt lat="44.54857" lon="6.18729">
        <ele>912.4284668</ele>
        <time>2016-05-20T09:40:52Z</time>
      </trkpt>
      <trkpt lat="44.54866" lon="6.18747">
        <ele>910.9865723</ele>
        <time>2016-05-20T09:40:54Z</time>
      </trkpt>
      <trkpt lat="44.54875" lon="6.18764">
        <ele>909.5446777</ele>
        <time>2016-05-20T09:40:56Z</time>
      </trkpt>
      <trkpt lat="44.54887" lon="6.18788">
        <ele>907.6218262</ele>
        <time>2016-05-20T09:40:59Z</time>
      </trkpt>
      <trkpt lat="44.54895" lon="6.18802">
        <ele>906.1796875</ele>
        <time>2016-05-20T09:41:01Z</time>
      </trkpt>
      <trkpt lat="44.54899" lon="6.18809">
        <ele>905.6992188</ele>
        <time>2016-05-20T09:41:02Z</time>
      </trkpt>
      <trkpt lat="44.54951" lon="6.18841">
        <ele>903.7766113</ele>
        <time>2016-05-20T09:41:11Z</time>
      </trkpt>
      <trkpt lat="44.54962" lon="6.18843">
        <ele>902.8151855</ele>
        <time>2016-05-20T09:41:13Z</time>
      </trkpt>
      <trkpt lat="44.54974" lon="6.18842">
        <ele>901.8540039</ele>
        <time>2016-05-20T09:41:15Z</time>
      </trkpt>
      <trkpt lat="44.54986" lon="6.18836">
        <ele>901.8540039</ele>
        <time>2016-05-20T09:41:17Z</time>
      </trkpt>
      <trkpt lat="44.55007" lon="6.18843">
        <ele>898.9699707</ele>
        <time>2016-05-20T09:41:22Z</time>
      </trkpt>
      <trkpt lat="44.55006" lon="6.18866">
        <ele>897.5280762</ele>
        <time>2016-05-20T09:41:25Z</time>
      </trkpt>
      <trkpt lat="44.55003" lon="6.18886">
        <ele>896.5668945</ele>
        <time>2016-05-20T09:41:27Z</time>
      </trkpt>
      <trkpt lat="44.55002" lon="6.18906">
        <ele>895.6054688</ele>
        <time>2016-05-20T09:41:29Z</time>
      </trkpt>
      <trkpt lat="44.55024" lon="6.1896">
        <ele>893.6828613</ele>
        <time>2016-05-20T09:41:35Z</time>
      </trkpt>
      <trkpt lat="44.55047" lon="6.18986">
        <ele>892.2409668</ele>
        <time>2016-05-20T09:41:39Z</time>
      </trkpt>
      <trkpt lat="44.55081" lon="6.18989">
        <ele>892.2409668</ele>
        <time>2016-05-20T09:41:45Z</time>
      </trkpt>
      <trkpt lat="44.55096" lon="6.18981">
        <ele>890.798584</ele>
        <time>2016-05-20T09:41:48Z</time>
      </trkpt>
      <trkpt lat="44.5511" lon="6.19021">
        <ele>889.3566895</ele>
        <time>2016-05-20T09:41:55Z</time>
      </trkpt>
      <trkpt lat="44.55109" lon="6.19041">
        <ele>888.8762207</ele>
        <time>2016-05-20T09:41:57Z</time>
      </trkpt>
      <trkpt lat="44.55109" lon="6.19062">
        <ele>887.434082</ele>
        <time>2016-05-20T09:41:59Z</time>
      </trkpt>
      <trkpt lat="44.55124" lon="6.191">
        <ele>885.5114746</ele>
        <time>2016-05-20T09:42:03Z</time>
      </trkpt>
      <trkpt lat="44.55142" lon="6.19123">
        <ele>884.0695801</ele>
        <time>2016-05-20T09:42:06Z</time>
      </trkpt>
      <trkpt lat="44.55156" lon="6.19138">
        <ele>882.1469727</ele>
        <time>2016-05-20T09:42:08Z</time>
      </trkpt>
      <trkpt lat="44.55167" lon="6.19153">
        <ele>880.7050781</ele>
        <time>2016-05-20T09:42:10Z</time>
      </trkpt>
      <trkpt lat="44.55173" lon="6.19159">
        <ele>879.2629395</ele>
        <time>2016-05-20T09:42:11Z</time>
      </trkpt>
      <trkpt lat="44.55184" lon="6.19168">
        <ele>878.3017578</ele>
        <time>2016-05-20T09:42:13Z</time>
      </trkpt>
      <trkpt lat="44.55206" lon="6.19157">
        <ele>876.3791504</ele>
        <time>2016-05-20T09:42:17Z</time>
      </trkpt>
      <trkpt lat="44.55218" lon="6.19144">
        <ele>875.4174805</ele>
        <time>2016-05-20T09:42:20Z</time>
      </trkpt>
      <trkpt lat="44.55234" lon="6.19164">
        <ele>873.4951172</ele>
        <time>2016-05-20T09:42:26Z</time>
      </trkpt>
      <trkpt lat="44.55231" lon="6.19172">
        <ele>873.4951172</ele>
        <time>2016-05-20T09:42:27Z</time>
      </trkpt>
      <trkpt lat="44.55245" lon="6.1923">
        <ele>871.0917969</ele>
        <time>2016-05-20T09:42:34Z</time>
      </trkpt>
      <trkpt lat="44.55264" lon="6.19255">
        <ele>870.1303711</ele>
        <time>2016-05-20T09:42:38Z</time>
      </trkpt>
      <trkpt lat="44.55284" lon="6.19297">
        <ele>869.1691895</ele>
        <time>2016-05-20T09:42:43Z</time>
      </trkpt>
      <trkpt lat="44.55321" lon="6.19355">
        <ele>866.2851563</ele>
        <time>2016-05-20T09:42:50Z</time>
      </trkpt>
      <trkpt lat="44.55362" lon="6.19394">
        <ele>864.3625488</ele>
        <time>2016-05-20T09:42:56Z</time>
      </trkpt>
      <trkpt lat="44.55417" lon="6.19431">
        <ele>861.4787598</ele>
        <time>2016-05-20T09:43:03Z</time>
      </trkpt>
      <trkpt lat="44.55425" lon="6.19436">
        <ele>861.4787598</ele>
        <time>2016-05-20T09:43:04Z</time>
      </trkpt>
      <trkpt lat="44.55459" lon="6.19458">
        <ele>860.0366211</ele>
        <time>2016-05-20T09:43:09Z</time>
      </trkpt>
      <trkpt lat="44.55496" lon="6.19453">
        <ele>859.0751953</ele>
        <time>2016-05-20T09:43:15Z</time>
      </trkpt>
      <trkpt lat="44.55508" lon="6.19446">
        <ele>858.1140137</ele>
        <time>2016-05-20T09:43:17Z</time>
      </trkpt>
      <trkpt lat="44.55529" lon="6.19447">
        <ele>858.1140137</ele>
        <time>2016-05-20T09:43:21Z</time>
      </trkpt>
      <trkpt lat="44.55546" lon="6.19455">
        <ele>858.1140137</ele>
        <time>2016-05-20T09:43:25Z</time>
      </trkpt>
      <trkpt lat="44.55572" lon="6.19442">
        <ele>857.6333008</ele>
        <time>2016-05-20T09:43:32Z</time>
      </trkpt>
      <trkpt lat="44.55598" lon="6.19436">
        <ele>857.1525879</ele>
        <time>2016-05-20T09:43:40Z</time>
      </trkpt>
      <trkpt lat="44.55634" lon="6.19488">
        <ele>859.5559082</ele>
        <time>2016-05-20T09:43:57Z</time>
      </trkpt>
      <trkpt lat="44.55667" lon="6.19506">
        <ele>861.4787598</ele>
        <time>2016-05-20T09:44:13Z</time>
      </trkpt>
      <trkpt lat="44.55727" lon="6.19523">
        <ele>860.517334</ele>
        <time>2016-05-20T09:44:31Z</time>
      </trkpt>
      <trkpt lat="44.5575" lon="6.19525">
        <ele>859.5559082</ele>
        <time>2016-05-20T09:44:36Z</time>
      </trkpt>
      <trkpt lat="44.55796" lon="6.19519">
        <ele>858.1140137</ele>
        <time>2016-05-20T09:44:45Z</time>
      </trkpt>
      <trkpt lat="44.55834" lon="6.19511">
        <ele>857.1525879</ele>
        <time>2016-05-20T09:44:51Z</time>
      </trkpt>
      <trkpt lat="44.55877" lon="6.19538">
        <ele>855.7106934</ele>
        <time>2016-05-20T09:44:59Z</time>
      </trkpt>
      <trkpt lat="44.55919" lon="6.1957">
        <ele>856.1911621</ele>
        <time>2016-05-20T09:45:13Z</time>
      </trkpt>
      <trkpt lat="44.55953" lon="6.19594">
        <ele>858.5944824</ele>
        <time>2016-05-20T09:45:30Z</time>
      </trkpt>
      <trkpt lat="44.55999" lon="6.19627">
        <ele>860.0366211</ele>
        <time>2016-05-20T09:45:52Z</time>
      </trkpt>
      <trkpt lat="44.56037" lon="6.19654">
        <ele>860.517334</ele>
        <time>2016-05-20T09:46:10Z</time>
      </trkpt>
      <trkpt lat="44.5608" lon="6.19685">
        <ele>860.9980469</ele>
        <time>2016-05-20T09:46:29Z</time>
      </trkpt>
      <trkpt lat="44.56123" lon="6.19719">
        <ele>860.9980469</ele>
        <time>2016-05-20T09:46:46Z</time>
      </trkpt>
      <trkpt lat="44.56149" lon="6.19739">
        <ele>860.9980469</ele>
        <time>2016-05-20T09:46:54Z</time>
      </trkpt>
      <trkpt lat="44.56179" lon="6.19774">
        <ele>859.0751953</ele>
        <time>2016-05-20T09:47:02Z</time>
      </trkpt>
      <trkpt lat="44.56225" lon="6.19801">
        <ele>857.6333008</ele>
        <time>2016-05-20T09:47:13Z</time>
      </trkpt>
      <trkpt lat="44.56235" lon="6.19837">
        <ele>856.671875</ele>
        <time>2016-05-20T09:47:20Z</time>
      </trkpt>
      <trkpt lat="44.56225" lon="6.19857">
        <ele>855.7106934</ele>
        <time>2016-05-20T09:47:25Z</time>
      </trkpt>
      <trkpt lat="44.5616" lon="6.19909">
        <ele>851.8654785</ele>
        <time>2016-05-20T09:47:36Z</time>
      </trkpt>
      <trkpt lat="44.56123" lon="6.19935">
        <ele>850.423584</ele>
        <time>2016-05-20T09:47:41Z</time>
      </trkpt>
      <trkpt lat="44.56096" lon="6.19948">
        <ele>848.0202637</ele>
        <time>2016-05-20T09:47:44Z</time>
      </trkpt>
      <trkpt lat="44.56079" lon="6.19955">
        <ele>846.0976563</ele>
        <time>2016-05-20T09:47:46Z</time>
      </trkpt>
      <trkpt lat="44.56062" lon="6.19964">
        <ele>844.1750488</ele>
        <time>2016-05-20T09:47:48Z</time>
      </trkpt>
      <trkpt lat="44.56036" lon="6.19977">
        <ele>842.2521973</ele>
        <time>2016-05-20T09:47:51Z</time>
      </trkpt>
      <trkpt lat="44.56017" lon="6.19985">
        <ele>840.8100586</ele>
        <time>2016-05-20T09:47:53Z</time>
      </trkpt>
      <trkpt lat="44.55977" lon="6.19991">
        <ele>836.484375</ele>
        <time>2016-05-20T09:47:57Z</time>
      </trkpt>
      <trkpt lat="44.55967" lon="6.19992">
        <ele>836.484375</ele>
        <time>2016-05-20T09:47:58Z</time>
      </trkpt>
      <trkpt lat="44.55947" lon="6.1999">
        <ele>835.0424805</ele>
        <time>2016-05-20T09:48:00Z</time>
      </trkpt>
      <trkpt lat="44.55897" lon="6.19983">
        <ele>832.6391602</ele>
        <time>2016-05-20T09:48:05Z</time>
      </trkpt>
      <trkpt lat="44.55822" lon="6.19994">
        <ele>829.2744141</ele>
        <time>2016-05-20T09:48:13Z</time>
      </trkpt>
      <trkpt lat="44.55734" lon="6.20019">
        <ele>828.3132324</ele>
        <time>2016-05-20T09:48:25Z</time>
      </trkpt>
      <trkpt lat="44.55666" lon="6.19994">
        <ele>827.3518066</ele>
        <time>2016-05-20T09:48:37Z</time>
      </trkpt>
      <trkpt lat="44.55599" lon="6.19989">
        <ele>824.4677734</ele>
        <time>2016-05-20T09:48:47Z</time>
      </trkpt>
      <trkpt lat="44.55543" lon="6.20005">
        <ele>821.5837402</ele>
        <time>2016-05-20T09:48:55Z</time>
      </trkpt>
      <trkpt lat="44.55515" lon="6.20028">
        <ele>819.1806641</ele>
        <time>2016-05-20T09:48:59Z</time>
      </trkpt>
      <trkpt lat="44.55488" lon="6.2006">
        <ele>817.2580566</ele>
        <time>2016-05-20T09:49:03Z</time>
      </trkpt>
      <trkpt lat="44.55449" lon="6.20085">
        <ele>814.3740234</ele>
        <time>2016-05-20T09:49:08Z</time>
      </trkpt>
      <trkpt lat="44.55412" lon="6.20088">
        <ele>812.9321289</ele>
        <time>2016-05-20T09:49:12Z</time>
      </trkpt>
      <trkpt lat="44.55393" lon="6.20085">
        <ele>811.4899902</ele>
        <time>2016-05-20T09:49:14Z</time>
      </trkpt>
      <trkpt lat="44.55351" lon="6.20086">
        <ele>807.1640625</ele>
        <time>2016-05-20T09:49:18Z</time>
      </trkpt>
      <trkpt lat="44.5534" lon="6.20088">
        <ele>807.1640625</ele>
        <time>2016-05-20T09:49:19Z</time>
      </trkpt>
      <trkpt lat="44.55283" lon="6.20103">
        <ele>802.3574219</ele>
        <time>2016-05-20T09:49:24Z</time>
      </trkpt>
      <trkpt lat="44.5526" lon="6.2011">
        <ele>800.4350586</ele>
        <time>2016-05-20T09:49:26Z</time>
      </trkpt>
      <trkpt lat="44.55177" lon="6.20135">
        <ele>796.5898438</ele>
        <time>2016-05-20T09:49:34Z</time>
      </trkpt>
      <trkpt lat="44.55167" lon="6.20138">
        <ele>796.5898438</ele>
        <time>2016-05-20T09:49:35Z</time>
      </trkpt>
      <trkpt lat="44.55149" lon="6.20144">
        <ele>795.1474609</ele>
        <time>2016-05-20T09:49:37Z</time>
      </trkpt>
      <trkpt lat="44.55125" lon="6.20152">
        <ele>793.7055664</ele>
        <time>2016-05-20T09:49:40Z</time>
      </trkpt>
      <trkpt lat="44.55049" lon="6.20175">
        <ele>790.3410645</ele>
        <time>2016-05-20T09:49:52Z</time>
      </trkpt>
      <trkpt lat="44.55028" lon="6.20185">
        <ele>789.8603516</ele>
        <time>2016-05-20T09:49:58Z</time>
      </trkpt>
      <trkpt lat="44.55015" lon="6.20185">
        <ele>789.8603516</ele>
        <time>2016-05-20T09:50:01Z</time>
      </trkpt>
      <trkpt lat="44.54953" lon="6.20136">
        <ele>789.3796387</ele>
        <time>2016-05-20T09:50:15Z</time>
      </trkpt>
      <trkpt lat="44.54841" lon="6.20052">
        <ele>786.9763184</ele>
        <time>2016-05-20T09:50:36Z</time>
      </trkpt>
      <trkpt lat="44.54724" lon="6.19966">
        <ele>785.0539551</ele>
        <time>2016-05-20T09:50:58Z</time>
      </trkpt>
      <trkpt lat="44.54583" lon="6.19862">
        <ele>782.6506348</ele>
        <time>2016-05-20T09:51:23Z</time>
      </trkpt>
      <trkpt lat="44.5448" lon="6.19767">
        <ele>782.1699219</ele>
        <time>2016-05-20T09:51:46Z</time>
      </trkpt>
      <trkpt lat="44.54393" lon="6.19711">
        <ele>781.2087402</ele>
        <time>2016-05-20T09:52:03Z</time>
      </trkpt>
      <trkpt lat="44.54301" lon="6.19658">
        <ele>777.84375</ele>
        <time>2016-05-20T09:52:18Z</time>
      </trkpt>
      <trkpt lat="44.54249" lon="6.19597">
        <ele>774.479248</ele>
        <time>2016-05-20T09:52:28Z</time>
      </trkpt>
      <trkpt lat="44.54245" lon="6.1959">
        <ele>774.479248</ele>
        <time>2016-05-20T09:52:29Z</time>
      </trkpt>
      <trkpt lat="44.54187" lon="6.19484">
        <ele>773.0373535</ele>
        <time>2016-05-20T09:52:45Z</time>
      </trkpt>
      <trkpt lat="44.54117" lon="6.19371">
        <ele>772.0759277</ele>
        <time>2016-05-20T09:53:06Z</time>
      </trkpt>
      <trkpt lat="44.54031" lon="6.19313">
        <ele>771.1147461</ele>
        <time>2016-05-20T09:53:25Z</time>
      </trkpt>
      <trkpt lat="44.53914" lon="6.1926">
        <ele>770.1533203</ele>
        <time>2016-05-20T09:53:47Z</time>
      </trkpt>
      <trkpt lat="44.53843" lon="6.19184">
        <ele>767.2695313</ele>
        <time>2016-05-20T09:54:00Z</time>
      </trkpt>
      <trkpt lat="44.53757" lon="6.19056">
        <ele>763.4240723</ele>
        <time>2016-05-20T09:54:16Z</time>
      </trkpt>
      <trkpt lat="44.53667" lon="6.18953">
        <ele>761.5014648</ele>
        <time>2016-05-20T09:54:33Z</time>
      </trkpt>
      <trkpt lat="44.53662" lon="6.18948">
        <ele>761.5014648</ele>
        <time>2016-05-20T09:54:34Z</time>
      </trkpt>
      <trkpt lat="44.53579" lon="6.18885">
        <ele>761.9821777</ele>
        <time>2016-05-20T09:54:54Z</time>
      </trkpt>
      <trkpt lat="44.53491" lon="6.18813">
        <ele>761.9821777</ele>
        <time>2016-05-20T09:55:18Z</time>
      </trkpt>
      <trkpt lat="44.53394" lon="6.1872">
        <ele>761.5014648</ele>
        <time>2016-05-20T09:55:45Z</time>
      </trkpt>
      <trkpt lat="44.53287" lon="6.18604">
        <ele>760.5400391</ele>
        <time>2016-05-20T09:56:13Z</time>
      </trkpt>
      <trkpt lat="44.53193" lon="6.18499">
        <ele>760.0593262</ele>
        <time>2016-05-20T09:56:38Z</time>
      </trkpt>
      <trkpt lat="44.53122" lon="6.1843">
        <ele>760.0593262</ele>
        <time>2016-05-20T09:56:58Z</time>
      </trkpt>
      <trkpt lat="44.53026" lon="6.18356">
        <ele>758.6174316</ele>
        <time>2016-05-20T09:57:22Z</time>
      </trkpt>
      <trkpt lat="44.5297" lon="6.18281">
        <ele>756.2141113</ele>
        <time>2016-05-20T09:57:37Z</time>
      </trkpt>
      <trkpt lat="44.52918" lon="6.18163">
        <ele>753.3303223</ele>
        <time>2016-05-20T09:57:55Z</time>
      </trkpt>
      <trkpt lat="44.52844" lon="6.18057">
        <ele>750.4465332</ele>
        <time>2016-05-20T09:58:14Z</time>
      </trkpt>
      <trkpt lat="44.52749" lon="6.18002">
        <ele>748.5236816</ele>
        <time>2016-05-20T09:58:32Z</time>
      </trkpt>
      <trkpt lat="44.52691" lon="6.17921">
        <ele>747.5622559</ele>
        <time>2016-05-20T09:58:46Z</time>
      </trkpt>
      <trkpt lat="44.52629" lon="6.17821">
        <ele>746.6010742</ele>
        <time>2016-05-20T09:59:02Z</time>
      </trkpt>
      <trkpt lat="44.52498" lon="6.17705">
        <ele>743.2363281</ele>
        <time>2016-05-20T09:59:27Z</time>
      </trkpt>
      <trkpt lat="44.52418" lon="6.17629">
        <ele>744.1977539</ele>
        <time>2016-05-20T09:59:45Z</time>
      </trkpt>
      <trkpt lat="44.52332" lon="6.17528">
        <ele>745.1589355</ele>
        <time>2016-05-20T10:00:10Z</time>
      </trkpt>
      <trkpt lat="44.52271" lon="6.17436">
        <ele>745.6396484</ele>
        <time>2016-05-20T10:00:31Z</time>
      </trkpt>
      <trkpt lat="44.52192" lon="6.17344">
        <ele>745.6396484</ele>
        <time>2016-05-20T10:00:53Z</time>
      </trkpt>
      <trkpt lat="44.52091" lon="6.17233">
        <ele>744.1977539</ele>
        <time>2016-05-20T10:01:19Z</time>
      </trkpt>
      <trkpt lat="44.51988" lon="6.17152">
        <ele>741.3137207</ele>
        <time>2016-05-20T10:01:43Z</time>
      </trkpt>
      <trkpt lat="44.51897" lon="6.17104">
        <ele>740.3525391</ele>
        <time>2016-05-20T10:02:04Z</time>
      </trkpt>
      <trkpt lat="44.51894" lon="6.17101">
        <ele>740.3525391</ele>
        <time>2016-05-20T10:02:05Z</time>
      </trkpt>
      <trkpt lat="44.51891" lon="6.17068">
        <ele>739.3911133</ele>
        <time>2016-05-20T10:02:10Z</time>
      </trkpt>
      <trkpt lat="44.51911" lon="6.16954">
        <ele>735.0654297</ele>
        <time>2016-05-20T10:02:20Z</time>
      </trkpt>
      <trkpt lat="44.51931" lon="6.16858">
        <ele>732.1813965</ele>
        <time>2016-05-20T10:02:28Z</time>
      </trkpt>
      <trkpt lat="44.51946" lon="6.16782">
        <ele>731.7004395</ele>
        <time>2016-05-20T10:02:39Z</time>
      </trkpt>
      <trkpt lat="44.51945" lon="6.16779">
        <ele>731.2199707</ele>
        <time>2016-05-20T10:02:50Z</time>
      </trkpt>
      <trkpt lat="44.51946" lon="6.16779">
        <ele>730.7392578</ele>
        <time>2016-05-20T10:02:53Z</time>
      </trkpt>
      <trkpt lat="44.51946" lon="6.16779">
        <ele>731.7004395</ele>
        <time>2016-05-20T10:02:58Z</time>
      </trkpt>
      <trkpt lat="44.51945" lon="6.16779">
        <ele>731.7004395</ele>
        <time>2016-05-20T10:04:30Z</time>
      </trkpt>
      <trkpt lat="44.51945" lon="6.1678">
        <ele>731.2199707</ele>
        <time>2016-05-20T10:07:27Z</time>
      </trkpt>
      <trkpt lat="44.51945" lon="6.1678">
        <ele>731.2199707</ele>
        <time>2016-05-20T10:07:40Z</time>
      </trkpt>
      <trkpt lat="44.51947" lon="6.16765">
        <ele>731.7004395</ele>
        <time>2016-05-20T10:07:49Z</time>
      </trkpt>
      <trkpt lat="44.51959" lon="6.16713">
        <ele>735.0654297</ele>
        <time>2016-05-20T10:08:10Z</time>
      </trkpt>
      <trkpt lat="44.51968" lon="6.16662">
        <ele>737.9492188</ele>
        <time>2016-05-20T10:08:31Z</time>
      </trkpt>
      <trkpt lat="44.51978" lon="6.16609">
        <ele>740.8330078</ele>
        <time>2016-05-20T10:08:52Z</time>
      </trkpt>
      <trkpt lat="44.51987" lon="6.16563">
        <ele>743.2363281</ele>
        <time>2016-05-20T10:09:11Z</time>
      </trkpt>
      <trkpt lat="44.51998" lon="6.16501">
        <ele>746.6010742</ele>
        <time>2016-05-20T10:09:35Z</time>
      </trkpt>
      <trkpt lat="44.52009" lon="6.16436">
        <ele>749.9658203</ele>
        <time>2016-05-20T10:10:01Z</time>
      </trkpt>
      <trkpt lat="44.5202" lon="6.16377">
        <ele>753.3303223</ele>
        <time>2016-05-20T10:10:24Z</time>
      </trkpt>
      <trkpt lat="44.5203" lon="6.16321">
        <ele>755.7336426</ele>
        <time>2016-05-20T10:10:46Z</time>
      </trkpt>
      <trkpt lat="44.52037" lon="6.1628">
        <ele>759.0981445</ele>
        <time>2016-05-20T10:11:03Z</time>
      </trkpt>
      <trkpt lat="44.52052" lon="6.16228">
        <ele>761.9821777</ele>
        <time>2016-05-20T10:11:28Z</time>
      </trkpt>
      <trkpt lat="44.52047" lon="6.16184">
        <ele>764.385498</ele>
        <time>2016-05-20T10:11:48Z</time>
      </trkpt>
      <trkpt lat="44.5202" lon="6.1619">
        <ele>765.8276367</ele>
        <time>2016-05-20T10:12:02Z</time>
      </trkpt>
      <trkpt lat="44.51978" lon="6.16198">
        <ele>768.2307129</ele>
        <time>2016-05-20T10:12:26Z</time>
      </trkpt>
      <trkpt lat="44.51946" lon="6.16198">
        <ele>771.1147461</ele>
        <time>2016-05-20T10:12:45Z</time>
      </trkpt>
      <trkpt lat="44.51909" lon="6.16202">
        <ele>773.5180664</ele>
        <time>2016-05-20T10:13:08Z</time>
      </trkpt>
      <trkpt lat="44.5188" lon="6.1618">
        <ele>776.8825684</ele>
        <time>2016-05-20T10:13:29Z</time>
      </trkpt>
      <trkpt lat="44.51857" lon="6.16149">
        <ele>780.2473145</ele>
        <time>2016-05-20T10:13:50Z</time>
      </trkpt>
      <trkpt lat="44.51837" lon="6.16114">
        <ele>783.6118164</ele>
        <time>2016-05-20T10:14:11Z</time>
      </trkpt>
      <trkpt lat="44.51807" lon="6.16097">
        <ele>786.0151367</ele>
        <time>2016-05-20T10:14:32Z</time>
      </trkpt>
      <trkpt lat="44.51777" lon="6.16087">
        <ele>787.9377441</ele>
        <time>2016-05-20T10:14:51Z</time>
      </trkpt>
      <trkpt lat="44.51746" lon="6.16063">
        <ele>791.3022461</ele>
        <time>2016-05-20T10:15:14Z</time>
      </trkpt>
      <trkpt lat="44.51717" lon="6.16039">
        <ele>794.666748</ele>
        <time>2016-05-20T10:15:35Z</time>
      </trkpt>
      <trkpt lat="44.51691" lon="6.16008">
        <ele>797.5510254</ele>
        <time>2016-05-20T10:15:57Z</time>
      </trkpt>
      <trkpt lat="44.51663" lon="6.15978">
        <ele>800.4350586</ele>
        <time>2016-05-20T10:16:20Z</time>
      </trkpt>
      <trkpt lat="44.51633" lon="6.15949">
        <ele>803.7995605</ele>
        <time>2016-05-20T10:16:44Z</time>
      </trkpt>
      <trkpt lat="44.51607" lon="6.15922">
        <ele>806.6833496</ele>
        <time>2016-05-20T10:17:05Z</time>
      </trkpt>
      <trkpt lat="44.51571" lon="6.15905">
        <ele>808.1254883</ele>
        <time>2016-05-20T10:17:29Z</time>
      </trkpt>
      <trkpt lat="44.51549" lon="6.15884">
        <ele>811.4899902</ele>
        <time>2016-05-20T10:17:46Z</time>
      </trkpt>
      <trkpt lat="44.51529" lon="6.15858">
        <ele>813.8933105</ele>
        <time>2016-05-20T10:18:05Z</time>
      </trkpt>
      <trkpt lat="44.51508" lon="6.15827">
        <ele>816.7773438</ele>
        <time>2016-05-20T10:18:26Z</time>
      </trkpt>
      <trkpt lat="44.51485" lon="6.15795">
        <ele>819.1806641</ele>
        <time>2016-05-20T10:18:48Z</time>
      </trkpt>
      <trkpt lat="44.51462" lon="6.1577">
        <ele>822.545166</ele>
        <time>2016-05-20T10:19:08Z</time>
      </trkpt>
      <trkpt lat="44.51446" lon="6.15743">
        <ele>823.5065918</ele>
        <time>2016-05-20T10:19:25Z</time>
      </trkpt>
      <trkpt lat="44.51464" lon="6.15747">
        <ele>824.9484863</ele>
        <time>2016-05-20T10:19:37Z</time>
      </trkpt>
      <trkpt lat="44.51499" lon="6.15782">
        <ele>827.3518066</ele>
        <time>2016-05-20T10:20:01Z</time>
      </trkpt>
      <trkpt lat="44.51505" lon="6.15785">
        <ele>828.3132324</ele>
        <time>2016-05-20T10:20:05Z</time>
      </trkpt>
      <trkpt lat="44.51531" lon="6.15813">
        <ele>830.7165527</ele>
        <time>2016-05-20T10:20:27Z</time>
      </trkpt>
      <trkpt lat="44.5156" lon="6.15836">
        <ele>833.6003418</ele>
        <time>2016-05-20T10:20:49Z</time>
      </trkpt>
      <trkpt lat="44.51587" lon="6.15851">
        <ele>836.484375</ele>
        <time>2016-05-20T10:21:08Z</time>
      </trkpt>
      <trkpt lat="44.5162" lon="6.15854">
        <ele>839.3681641</ele>
        <time>2016-05-20T10:21:31Z</time>
      </trkpt>
      <trkpt lat="44.5165" lon="6.15865">
        <ele>841.7714844</ele>
        <time>2016-05-20T10:21:51Z</time>
      </trkpt>
      <trkpt lat="44.51681" lon="6.15874">
        <ele>844.1750488</ele>
        <time>2016-05-20T10:22:13Z</time>
      </trkpt>
      <trkpt lat="44.5171" lon="6.15884">
        <ele>847.0588379</ele>
        <time>2016-05-20T10:22:33Z</time>
      </trkpt>
      <trkpt lat="44.51743" lon="6.15903">
        <ele>849.4621582</ele>
        <time>2016-05-20T10:22:57Z</time>
      </trkpt>
      <trkpt lat="44.51779" lon="6.15918">
        <ele>852.8266602</ele>
        <time>2016-05-20T10:23:22Z</time>
      </trkpt>
      <trkpt lat="44.51812" lon="6.15929">
        <ele>855.7106934</ele>
        <time>2016-05-20T10:23:45Z</time>
      </trkpt>
      <trkpt lat="44.51841" lon="6.15944">
        <ele>858.5944824</ele>
        <time>2016-05-20T10:24:07Z</time>
      </trkpt>
      <trkpt lat="44.5187" lon="6.15954">
        <ele>860.9980469</ele>
        <time>2016-05-20T10:24:27Z</time>
      </trkpt>
      <trkpt lat="44.51899" lon="6.15943">
        <ele>863.4013672</ele>
        <time>2016-05-20T10:24:48Z</time>
      </trkpt>
      <trkpt lat="44.51929" lon="6.15922">
        <ele>866.7658691</ele>
        <time>2016-05-20T10:25:11Z</time>
      </trkpt>
      <trkpt lat="44.51951" lon="6.15898">
        <ele>869.6499023</ele>
        <time>2016-05-20T10:25:30Z</time>
      </trkpt>
      <trkpt lat="44.51978" lon="6.15878">
        <ele>872.0529785</ele>
        <time>2016-05-20T10:25:51Z</time>
      </trkpt>
      <trkpt lat="44.52005" lon="6.15864">
        <ele>874.9370117</ele>
        <time>2016-05-20T10:26:11Z</time>
      </trkpt>
      <trkpt lat="44.52034" lon="6.15834">
        <ele>878.3017578</ele>
        <time>2016-05-20T10:26:36Z</time>
      </trkpt>
      <trkpt lat="44.52057" lon="6.15797">
        <ele>881.6662598</ele>
        <time>2016-05-20T10:27:00Z</time>
      </trkpt>
      <trkpt lat="44.52069" lon="6.15762">
        <ele>882.6276855</ele>
        <time>2016-05-20T10:27:18Z</time>
      </trkpt>
      <trkpt lat="44.5207" lon="6.15759">
        <ele>882.6276855</ele>
        <time>2016-05-20T10:27:19Z</time>
      </trkpt>
      <trkpt lat="44.52072" lon="6.15756">
        <ele>883.5888672</ele>
        <time>2016-05-20T10:27:21Z</time>
      </trkpt>
      <trkpt lat="44.52076" lon="6.15709">
        <ele>885.0310059</ele>
        <time>2016-05-20T10:27:41Z</time>
      </trkpt>
      <trkpt lat="44.52079" lon="6.15649">
        <ele>884.0695801</ele>
        <time>2016-05-20T10:27:54Z</time>
      </trkpt>
      <trkpt lat="44.52092" lon="6.15568">
        <ele>882.6276855</ele>
        <time>2016-05-20T10:28:11Z</time>
      </trkpt>
      <trkpt lat="44.52098" lon="6.15494">
        <ele>881.6662598</ele>
        <time>2016-05-20T10:28:26Z</time>
      </trkpt>
      <trkpt lat="44.52112" lon="6.15448">
        <ele>882.1469727</ele>
        <time>2016-05-20T10:28:40Z</time>
      </trkpt>
      <trkpt lat="44.52116" lon="6.15405">
        <ele>884.550293</ele>
        <time>2016-05-20T10:28:59Z</time>
      </trkpt>
      <trkpt lat="44.52089" lon="6.1537">
        <ele>887.9147949</ele>
        <time>2016-05-20T10:29:19Z</time>
      </trkpt>
      <trkpt lat="44.52062" lon="6.15339">
        <ele>890.3181152</ele>
        <time>2016-05-20T10:29:40Z</time>
      </trkpt>
      <trkpt lat="44.52041" lon="6.15317">
        <ele>891.7600098</ele>
        <time>2016-05-20T10:29:56Z</time>
      </trkpt>
      <trkpt lat="44.52017" lon="6.15298">
        <ele>894.1635742</ele>
        <time>2016-05-20T10:30:14Z</time>
      </trkpt>
      <trkpt lat="44.52031" lon="6.15275">
        <ele>873.0144043</ele>
        <time>2016-05-20T10:30:50Z</time>
      </trkpt>
      <trkpt lat="44.52024" lon="6.15274">
        <ele>895.1247559</ele>
        <time>2016-05-20T10:30:53Z</time>
      </trkpt>
      <trkpt lat="44.52016" lon="6.15299">
        <ele>895.6054688</ele>
        <time>2016-05-20T10:31:05Z</time>
      </trkpt>
      <trkpt lat="44.52016" lon="6.15298">
        <ele>898.4892578</ele>
        <time>2016-05-20T10:31:06Z</time>
      </trkpt>
      <trkpt lat="44.52017" lon="6.15298">
        <ele>898.4892578</ele>
        <time>2016-05-20T10:31:07Z</time>
      </trkpt>
      <trkpt lat="44.52019" lon="6.15298">
        <ele>897.0473633</ele>
        <time>2016-05-20T10:31:45Z</time>
      </trkpt>
      <trkpt lat="44.51983" lon="6.1528">
        <ele>895.6054688</ele>
        <time>2016-05-20T10:31:57Z</time>
      </trkpt>
      <trkpt lat="44.51918" lon="6.15247">
        <ele>894.1635742</ele>
        <time>2016-05-20T10:32:09Z</time>
      </trkpt>
      <trkpt lat="44.51901" lon="6.15227">
        <ele>893.2021484</ele>
        <time>2016-05-20T10:32:14Z</time>
      </trkpt>
      <trkpt lat="44.51878" lon="6.15133">
        <ele>893.2021484</ele>
        <time>2016-05-20T10:32:33Z</time>
      </trkpt>
      <trkpt lat="44.51861" lon="6.15126">
        <ele>892.7216797</ele>
        <time>2016-05-20T10:32:37Z</time>
      </trkpt>
      <trkpt lat="44.51845" lon="6.15124">
        <ele>892.2409668</ele>
        <time>2016-05-20T10:32:40Z</time>
      </trkpt>
      <trkpt lat="44.51827" lon="6.15112">
        <ele>892.7216797</ele>
        <time>2016-05-20T10:32:45Z</time>
      </trkpt>
      <trkpt lat="44.51804" lon="6.15073">
        <ele>894.644043</ele>
        <time>2016-05-20T10:33:01Z</time>
      </trkpt>
      <trkpt lat="44.51788" lon="6.15014">
        <ele>895.1247559</ele>
        <time>2016-05-20T10:33:19Z</time>
      </trkpt>
      <trkpt lat="44.51795" lon="6.15">
        <ele>894.644043</ele>
        <time>2016-05-20T10:33:22Z</time>
      </trkpt>
      <trkpt lat="44.51798" lon="6.14973">
        <ele>894.644043</ele>
        <time>2016-05-20T10:33:27Z</time>
      </trkpt>
      <trkpt lat="44.51782" lon="6.14943">
        <ele>896.0861816</ele>
        <time>2016-05-20T10:33:42Z</time>
      </trkpt>
      <trkpt lat="44.51759" lon="6.14947">
        <ele>899.4506836</ele>
        <time>2016-05-20T10:33:57Z</time>
      </trkpt>
      <trkpt lat="44.51744" lon="6.1493">
        <ele>901.373291</ele>
        <time>2016-05-20T10:34:12Z</time>
      </trkpt>
      <trkpt lat="44.51755" lon="6.14889">
        <ele>902.3344727</ele>
        <time>2016-05-20T10:34:31Z</time>
      </trkpt>
      <trkpt lat="44.51751" lon="6.1486">
        <ele>904.2573242</ele>
        <time>2016-05-20T10:34:45Z</time>
      </trkpt>
      <trkpt lat="44.51721" lon="6.14871">
        <ele>904.737793</ele>
        <time>2016-05-20T10:35:01Z</time>
      </trkpt>
      <trkpt lat="44.51691" lon="6.1488">
        <ele>904.2573242</ele>
        <time>2016-05-20T10:35:12Z</time>
      </trkpt>
      <trkpt lat="44.51649" lon="6.14877">
        <ele>902.3344727</ele>
        <time>2016-05-20T10:35:20Z</time>
      </trkpt>
      <trkpt lat="44.51626" lon="6.14881">
        <ele>900.4121094</ele>
        <time>2016-05-20T10:35:24Z</time>
      </trkpt>
      <trkpt lat="44.516" lon="6.14878">
        <ele>897.0473633</ele>
        <time>2016-05-20T10:35:30Z</time>
      </trkpt>
      <trkpt lat="44.51596" lon="6.14876">
        <ele>895.6054688</ele>
        <time>2016-05-20T10:35:32Z</time>
      </trkpt>
      <trkpt lat="44.51593" lon="6.14855">
        <ele>895.1247559</ele>
        <time>2016-05-20T10:35:36Z</time>
      </trkpt>
      <trkpt lat="44.51592" lon="6.14823">
        <ele>893.6828613</ele>
        <time>2016-05-20T10:35:40Z</time>
      </trkpt>
      <trkpt lat="44.51591" lon="6.14767">
        <ele>890.798584</ele>
        <time>2016-05-20T10:35:46Z</time>
      </trkpt>
      <trkpt lat="44.5159" lon="6.14762">
        <ele>890.798584</ele>
        <time>2016-05-20T10:35:47Z</time>
      </trkpt>
      <trkpt lat="44.51583" lon="6.14748">
        <ele>890.3181152</ele>
        <time>2016-05-20T10:35:51Z</time>
      </trkpt>
      <trkpt lat="44.51581" lon="6.14746">
        <ele>890.3181152</ele>
        <time>2016-05-20T10:35:53Z</time>
      </trkpt>
      <trkpt lat="44.51575" lon="6.14754">
        <ele>891.2792969</ele>
        <time>2016-05-20T10:35:57Z</time>
      </trkpt>
      <trkpt lat="44.51566" lon="6.14773">
        <ele>892.7216797</ele>
        <time>2016-05-20T10:36:07Z</time>
      </trkpt>
      <trkpt lat="44.51548" lon="6.148">
        <ele>894.644043</ele>
        <time>2016-05-20T10:36:21Z</time>
      </trkpt>
      <trkpt lat="44.51537" lon="6.14812">
        <ele>896.0861816</ele>
        <time>2016-05-20T10:36:32Z</time>
      </trkpt>
      <trkpt lat="44.51529" lon="6.14834">
        <ele>898.0087891</ele>
        <time>2016-05-20T10:36:45Z</time>
      </trkpt>
      <trkpt lat="44.51517" lon="6.14851">
        <ele>898.9699707</ele>
        <time>2016-05-20T10:36:53Z</time>
      </trkpt>
      <trkpt lat="44.51483" lon="6.14848">
        <ele>901.373291</ele>
        <time>2016-05-20T10:37:11Z</time>
      </trkpt>
      <trkpt lat="44.5145" lon="6.14817">
        <ele>903.7766113</ele>
        <time>2016-05-20T10:37:34Z</time>
      </trkpt>
      <trkpt lat="44.5144" lon="6.14809">
        <ele>904.2573242</ele>
        <time>2016-05-20T10:37:41Z</time>
      </trkpt>
      <trkpt lat="44.5142" lon="6.14787">
        <ele>907.1411133</ele>
        <time>2016-05-20T10:38:00Z</time>
      </trkpt>
      <trkpt lat="44.51428" lon="6.1475">
        <ele>909.0639648</ele>
        <time>2016-05-20T10:38:18Z</time>
      </trkpt>
      <trkpt lat="44.51415" lon="6.14705">
        <ele>911.947998</ele>
        <time>2016-05-20T10:38:40Z</time>
      </trkpt>
      <trkpt lat="44.51396" lon="6.14678">
        <ele>913.8703613</ele>
        <time>2016-05-20T10:38:58Z</time>
      </trkpt>
      <trkpt lat="44.51368" lon="6.14647">
        <ele>916.2736816</ele>
        <time>2016-05-20T10:39:20Z</time>
      </trkpt>
      <trkpt lat="44.51345" lon="6.14613">
        <ele>919.1577148</ele>
        <time>2016-05-20T10:39:43Z</time>
      </trkpt>
      <trkpt lat="44.51323" lon="6.14583">
        <ele>921.560791</ele>
        <time>2016-05-20T10:40:03Z</time>
      </trkpt>
      <trkpt lat="44.51304" lon="6.14552">
        <ele>923.0029297</ele>
        <time>2016-05-20T10:40:21Z</time>
      </trkpt>
      <trkpt lat="44.51297" lon="6.14544">
        <ele>923.9641113</ele>
        <time>2016-05-20T10:40:27Z</time>
      </trkpt>
      <trkpt lat="44.51302" lon="6.14529">
        <ele>924.4450684</ele>
        <time>2016-05-20T10:40:38Z</time>
      </trkpt>
      <trkpt lat="44.5132" lon="6.1456">
        <ele>926.8483887</ele>
        <time>2016-05-20T10:40:57Z</time>
      </trkpt>
      <trkpt lat="44.51341" lon="6.14583">
        <ele>928.7709961</ele>
        <time>2016-05-20T10:41:14Z</time>
      </trkpt>
      <trkpt lat="44.51355" lon="6.14593">
        <ele>931.1743164</ele>
        <time>2016-05-20T10:41:25Z</time>
      </trkpt>
      <trkpt lat="44.51379" lon="6.14606">
        <ele>933.0966797</ele>
        <time>2016-05-20T10:41:43Z</time>
      </trkpt>
      <trkpt lat="44.51393" lon="6.14612">
        <ele>934.0581055</ele>
        <time>2016-05-20T10:41:53Z</time>
      </trkpt>
      <trkpt lat="44.51407" lon="6.14619">
        <ele>935.5</ele>
        <time>2016-05-20T10:42:04Z</time>
      </trkpt>
      <trkpt lat="44.51413" lon="6.1462">
        <ele>935.9807129</ele>
        <time>2016-05-20T10:42:08Z</time>
      </trkpt>
      <trkpt lat="44.51444" lon="6.14621">
        <ele>938.3840332</ele>
        <time>2016-05-20T10:42:28Z</time>
      </trkpt>
      <trkpt lat="44.5145" lon="6.14616">
        <ele>938.8647461</ele>
        <time>2016-05-20T10:42:33Z</time>
      </trkpt>
      <trkpt lat="44.51475" lon="6.14604">
        <ele>941.2680664</ele>
        <time>2016-05-20T10:42:51Z</time>
      </trkpt>
      <trkpt lat="44.5147" lon="6.14599">
        <ele>942.7102051</ele>
        <time>2016-05-20T10:43:00Z</time>
      </trkpt>
      <trkpt lat="44.51451" lon="6.14606">
        <ele>945.1132813</ele>
        <time>2016-05-20T10:43:17Z</time>
      </trkpt>
      <trkpt lat="44.51444" lon="6.14607">
        <ele>946.074707</ele>
        <time>2016-05-20T10:43:22Z</time>
      </trkpt>
      <trkpt lat="44.51418" lon="6.14585">
        <ele>948.9584961</ele>
        <time>2016-05-20T10:43:43Z</time>
      </trkpt>
      <trkpt lat="44.51412" lon="6.14574">
        <ele>949.9199219</ele>
        <time>2016-05-20T10:43:50Z</time>
      </trkpt>
      <trkpt lat="44.51402" lon="6.14562">
        <ele>951.3618164</ele>
        <time>2016-05-20T10:44:00Z</time>
      </trkpt>
      <trkpt lat="44.51403" lon="6.14552">
        <ele>952.322998</ele>
        <time>2016-05-20T10:44:06Z</time>
      </trkpt>
      <trkpt lat="44.51427" lon="6.14535">
        <ele>955.6877441</ele>
        <time>2016-05-20T10:44:26Z</time>
      </trkpt>
      <trkpt lat="44.51453" lon="6.14518">
        <ele>958.0913086</ele>
        <time>2016-05-20T10:44:47Z</time>
      </trkpt>
      <trkpt lat="44.51475" lon="6.14529">
        <ele>960.4943848</ele>
        <time>2016-05-20T10:45:05Z</time>
      </trkpt>
      <trkpt lat="44.51486" lon="6.14535">
        <ele>961.9365234</ele>
        <time>2016-05-20T10:45:15Z</time>
      </trkpt>
      <trkpt lat="44.51508" lon="6.14548">
        <ele>964.8203125</ele>
        <time>2016-05-20T10:45:34Z</time>
      </trkpt>
      <trkpt lat="44.51509" lon="6.14548">
        <ele>964.8203125</ele>
        <time>2016-05-20T10:45:35Z</time>
      </trkpt>
      <trkpt lat="44.51515" lon="6.1455">
        <ele>965.3010254</ele>
        <time>2016-05-20T10:45:40Z</time>
      </trkpt>
      <trkpt lat="44.51547" lon="6.14562">
        <ele>967.7041016</ele>
        <time>2016-05-20T10:46:02Z</time>
      </trkpt>
      <trkpt lat="44.51549" lon="6.14562">
        <ele>967.7041016</ele>
        <time>2016-05-20T10:46:04Z</time>
      </trkpt>
      <trkpt lat="44.51552" lon="6.14559">
        <ele>968.1848145</ele>
        <time>2016-05-20T10:46:07Z</time>
      </trkpt>
      <trkpt lat="44.51554" lon="6.14555">
        <ele>969.1462402</ele>
        <time>2016-05-20T10:46:12Z</time>
      </trkpt>
      <trkpt lat="44.5154" lon="6.1453">
        <ele>972.0302734</ele>
        <time>2016-05-20T10:46:31Z</time>
      </trkpt>
      <trkpt lat="44.51536" lon="6.14505">
        <ele>973.4724121</ele>
        <time>2016-05-20T10:46:46Z</time>
      </trkpt>
      <trkpt lat="44.51533" lon="6.14495">
        <ele>974.4335938</ele>
        <time>2016-05-20T10:46:51Z</time>
      </trkpt>
      <trkpt lat="44.51533" lon="6.14491">
        <ele>974.9143066</ele>
        <time>2016-05-20T10:46:53Z</time>
      </trkpt>
      <trkpt lat="44.51522" lon="6.14463">
        <ele>977.317627</ele>
        <time>2016-05-20T10:47:09Z</time>
      </trkpt>
      <trkpt lat="44.51521" lon="6.14425">
        <ele>979.7207031</ele>
        <time>2016-05-20T10:47:29Z</time>
      </trkpt>
      <trkpt lat="44.51541" lon="6.14409">
        <ele>981.6433105</ele>
        <time>2016-05-20T10:47:46Z</time>
      </trkpt>
      <trkpt lat="44.51546" lon="6.14406">
        <ele>982.1240234</ele>
        <time>2016-05-20T10:47:51Z</time>
      </trkpt>
      <trkpt lat="44.51548" lon="6.14404">
        <ele>982.6047363</ele>
        <time>2016-05-20T10:47:54Z</time>
      </trkpt>
      <trkpt lat="44.51556" lon="6.14401">
        <ele>983.565918</ele>
        <time>2016-05-20T10:48:01Z</time>
      </trkpt>
      <trkpt lat="44.5156" lon="6.14396">
        <ele>984.5273438</ele>
        <time>2016-05-20T10:48:06Z</time>
      </trkpt>
      <trkpt lat="44.51557" lon="6.14369">
        <ele>986.4499512</ele>
        <time>2016-05-20T10:48:18Z</time>
      </trkpt>
      <trkpt lat="44.51575" lon="6.14319">
        <ele>987.4111328</ele>
        <time>2016-05-20T10:48:38Z</time>
      </trkpt>
      <trkpt lat="44.51584" lon="6.14276">
        <ele>988.8535156</ele>
        <time>2016-05-20T10:48:58Z</time>
      </trkpt>
      <trkpt lat="44.51583" lon="6.14275">
        <ele>988.8535156</ele>
        <time>2016-05-20T10:48:59Z</time>
      </trkpt>
      <trkpt lat="44.5158" lon="6.14274">
        <ele>989.3339844</ele>
        <time>2016-05-20T10:49:04Z</time>
      </trkpt>
      <trkpt lat="44.51578" lon="6.14276">
        <ele>989.3339844</ele>
        <time>2016-05-20T10:49:06Z</time>
      </trkpt>
      <trkpt lat="44.51559" lon="6.14292">
        <ele>991.2565918</ele>
        <time>2016-05-20T10:49:20Z</time>
      </trkpt>
      <trkpt lat="44.51557" lon="6.14292">
        <ele>991.7373047</ele>
        <time>2016-05-20T10:49:22Z</time>
      </trkpt>
      <trkpt lat="44.5154" lon="6.14297">
        <ele>993.1791992</ele>
        <time>2016-05-20T10:49:34Z</time>
      </trkpt>
      <trkpt lat="44.51508" lon="6.14311">
        <ele>995.1018066</ele>
        <time>2016-05-20T10:49:53Z</time>
      </trkpt>
      <trkpt lat="44.51485" lon="6.14296">
        <ele>996.5439453</ele>
        <time>2016-05-20T10:50:09Z</time>
      </trkpt>
      <trkpt lat="44.51466" lon="6.14274">
        <ele>997.9858398</ele>
        <time>2016-05-20T10:50:25Z</time>
      </trkpt>
      <trkpt lat="44.5146" lon="6.14269">
        <ele>998.9470215</ele>
        <time>2016-05-20T10:50:30Z</time>
      </trkpt>
      <trkpt lat="44.51456" lon="6.14263">
        <ele>999.4277344</ele>
        <time>2016-05-20T10:50:34Z</time>
      </trkpt>
      <trkpt lat="44.51433" lon="6.14245">
        <ele>1001.3503418</ele>
        <time>2016-05-20T10:50:51Z</time>
      </trkpt>
      <trkpt lat="44.51422" lon="6.14244">
        <ele>1001.8310547</ele>
        <time>2016-05-20T10:50:58Z</time>
      </trkpt>
      <trkpt lat="44.51419" lon="6.14242">
        <ele>1002.3115234</ele>
        <time>2016-05-20T10:51:01Z</time>
      </trkpt>
      <trkpt lat="44.51406" lon="6.14235">
        <ele>1003.2729492</ele>
        <time>2016-05-20T10:51:11Z</time>
      </trkpt>
      <trkpt lat="44.514" lon="6.14231">
        <ele>1003.7536621</ele>
        <time>2016-05-20T10:51:15Z</time>
      </trkpt>
      <trkpt lat="44.51396" lon="6.1423">
        <ele>1003.7536621</ele>
        <time>2016-05-20T10:51:17Z</time>
      </trkpt>
      <trkpt lat="44.51391" lon="6.14225">
        <ele>1005.1958008</ele>
        <time>2016-05-20T10:51:21Z</time>
      </trkpt>
      <trkpt lat="44.51371" lon="6.14209">
        <ele>1006.6376953</ele>
        <time>2016-05-20T10:51:37Z</time>
      </trkpt>
      <trkpt lat="44.51369" lon="6.14201">
        <ele>1007.1184082</ele>
        <time>2016-05-20T10:51:42Z</time>
      </trkpt>
      <trkpt lat="44.51358" lon="6.14197">
        <ele>1007.5991211</ele>
        <time>2016-05-20T10:51:48Z</time>
      </trkpt>
      <trkpt lat="44.51347" lon="6.14191">
        <ele>1008.5603027</ele>
        <time>2016-05-20T10:51:55Z</time>
      </trkpt>
      <trkpt lat="44.51343" lon="6.1419">
        <ele>1009.0410156</ele>
        <time>2016-05-20T10:51:57Z</time>
      </trkpt>
      <trkpt lat="44.51331" lon="6.1419">
        <ele>1010.0021973</ele>
        <time>2016-05-20T10:52:06Z</time>
      </trkpt>
      <trkpt lat="44.51327" lon="6.14187">
        <ele>1010.4829102</ele>
        <time>2016-05-20T10:52:09Z</time>
      </trkpt>
      <trkpt lat="44.51307" lon="6.14182">
        <ele>1011.9250488</ele>
        <time>2016-05-20T10:52:23Z</time>
      </trkpt>
      <trkpt lat="44.51288" lon="6.14175">
        <ele>1013.3669434</ele>
        <time>2016-05-20T10:52:35Z</time>
      </trkpt>
      <trkpt lat="44.51269" lon="6.14165">
        <ele>1015.2895508</ele>
        <time>2016-05-20T10:52:47Z</time>
      </trkpt>
      <trkpt lat="44.51259" lon="6.14163">
        <ele>1015.7702637</ele>
        <time>2016-05-20T10:52:53Z</time>
      </trkpt>
      <trkpt lat="44.51233" lon="6.14143">
        <ele>1017.692627</ele>
        <time>2016-05-20T10:53:12Z</time>
      </trkpt>
      <trkpt lat="44.51217" lon="6.14129">
        <ele>1019.1347656</ele>
        <time>2016-05-20T10:53:24Z</time>
      </trkpt>
      <trkpt lat="44.51196" lon="6.14088">
        <ele>1022.0187988</ele>
        <time>2016-05-20T10:53:47Z</time>
      </trkpt>
      <trkpt lat="44.51188" lon="6.14042">
        <ele>1023.4609375</ele>
        <time>2016-05-20T10:54:08Z</time>
      </trkpt>
      <trkpt lat="44.51194" lon="6.14002">
        <ele>1025.3833008</ele>
        <time>2016-05-20T10:54:26Z</time>
      </trkpt>
      <trkpt lat="44.51209" lon="6.13963">
        <ele>1027.7866211</ele>
        <time>2016-05-20T10:54:49Z</time>
      </trkpt>
      <trkpt lat="44.51217" lon="6.13944">
        <ele>1028.7480469</ele>
        <time>2016-05-20T10:55:00Z</time>
      </trkpt>
      <trkpt lat="44.51225" lon="6.13899">
        <ele>1032.1125488</ele>
        <time>2016-05-20T10:55:26Z</time>
      </trkpt>
      <trkpt lat="44.51227" lon="6.13873">
        <ele>1034.0351563</ele>
        <time>2016-05-20T10:55:39Z</time>
      </trkpt>
      <trkpt lat="44.51227" lon="6.13851">
        <ele>1034.5158691</ele>
        <time>2016-05-20T10:55:47Z</time>
      </trkpt>
      <trkpt lat="44.51227" lon="6.13841">
        <ele>1034.5158691</ele>
        <time>2016-05-20T10:55:51Z</time>
      </trkpt>
      <trkpt lat="44.51224" lon="6.13833">
        <ele>1034.996582</ele>
        <time>2016-05-20T10:55:55Z</time>
      </trkpt>
      <trkpt lat="44.51217" lon="6.13788">
        <ele>1037.3999023</ele>
        <time>2016-05-20T10:56:16Z</time>
      </trkpt>
      <trkpt lat="44.51208" lon="6.1374">
        <ele>1041.2451172</ele>
        <time>2016-05-20T10:56:38Z</time>
      </trkpt>
      <trkpt lat="44.51205" lon="6.13723">
        <ele>1041.7258301</ele>
        <time>2016-05-20T10:56:46Z</time>
      </trkpt>
      <trkpt lat="44.51205" lon="6.13717">
        <ele>1042.206543</ele>
        <time>2016-05-20T10:56:49Z</time>
      </trkpt>
      <trkpt lat="44.51192" lon="6.13678">
        <ele>1044.6096191</ele>
        <time>2016-05-20T10:57:10Z</time>
      </trkpt>
      <trkpt lat="44.51184" lon="6.13648">
        <ele>1046.5324707</ele>
        <time>2016-05-20T10:57:25Z</time>
      </trkpt>
      <trkpt lat="44.51184" lon="6.13628">
        <ele>1047.9743652</ele>
        <time>2016-05-20T10:57:38Z</time>
      </trkpt>
      <trkpt lat="44.51185" lon="6.13626">
        <ele>1048.454834</ele>
        <time>2016-05-20T10:57:39Z</time>
      </trkpt>
      <trkpt lat="44.51187" lon="6.13618">
        <ele>1048.9355469</ele>
        <time>2016-05-20T10:57:42Z</time>
      </trkpt>
      <trkpt lat="44.51188" lon="6.13597">
        <ele>1049.8969727</ele>
        <time>2016-05-20T10:57:50Z</time>
      </trkpt>
      <trkpt lat="44.51192" lon="6.13577">
        <ele>1050.8581543</ele>
        <time>2016-05-20T10:57:58Z</time>
      </trkpt>
      <trkpt lat="44.51193" lon="6.1357">
        <ele>1051.3388672</ele>
        <time>2016-05-20T10:58:02Z</time>
      </trkpt>
      <trkpt lat="44.51201" lon="6.1354">
        <ele>1052.7810059</ele>
        <time>2016-05-20T10:58:15Z</time>
      </trkpt>
      <trkpt lat="44.51199" lon="6.13531">
        <ele>1052.7810059</ele>
        <time>2016-05-20T10:58:19Z</time>
      </trkpt>
      <trkpt lat="44.512" lon="6.13524">
        <ele>1053.2617188</ele>
        <time>2016-05-20T10:58:22Z</time>
      </trkpt>
      <trkpt lat="44.51196" lon="6.13512">
        <ele>1053.2617188</ele>
        <time>2016-05-20T10:58:36Z</time>
      </trkpt>
      <trkpt lat="44.51198" lon="6.13511">
        <ele>1054.2231445</ele>
        <time>2016-05-20T10:59:37Z</time>
      </trkpt>
      <trkpt lat="44.51203" lon="6.13506">
        <ele>1054.2231445</ele>
        <time>2016-05-20T10:59:59Z</time>
      </trkpt>
      <trkpt lat="44.51204" lon="6.13505">
        <ele>1054.7036133</ele>
        <time>2016-05-20T11:00:20Z</time>
      </trkpt>
      <trkpt lat="44.51202" lon="6.13507">
        <ele>1055.6650391</ele>
        <time>2016-05-20T11:00:39Z</time>
      </trkpt>
      <trkpt lat="44.51202" lon="6.13504">
        <ele>1055.1843262</ele>
        <time>2016-05-20T11:00:59Z</time>
      </trkpt>
      <trkpt lat="44.51201" lon="6.13504">
        <ele>1055.1843262</ele>
        <time>2016-05-20T11:01:01Z</time>
      </trkpt>
      <trkpt lat="44.51208" lon="6.13495">
        <ele>1054.2231445</ele>
        <time>2016-05-20T11:01:09Z</time>
      </trkpt>
      <trkpt lat="44.51214" lon="6.13475">
        <ele>1053.2617188</ele>
        <time>2016-05-20T11:01:15Z</time>
      </trkpt>
      <trkpt lat="44.51222" lon="6.13427">
        <ele>1051.8195801</ele>
        <time>2016-05-20T11:01:24Z</time>
      </trkpt>
      <trkpt lat="44.5124" lon="6.13387">
        <ele>1048.9355469</ele>
        <time>2016-05-20T11:01:29Z</time>
      </trkpt>
      <trkpt lat="44.51254" lon="6.13363">
        <ele>1047.0129395</ele>
        <time>2016-05-20T11:01:32Z</time>
      </trkpt>
      <trkpt lat="44.51275" lon="6.13335">
        <ele>1045.5710449</ele>
        <time>2016-05-20T11:01:36Z</time>
      </trkpt>
      <trkpt lat="44.51285" lon="6.13323">
        <ele>1044.6096191</ele>
        <time>2016-05-20T11:01:38Z</time>
      </trkpt>
      <trkpt lat="44.51308" lon="6.13309">
        <ele>1041.7258301</ele>
        <time>2016-05-20T11:01:42Z</time>
      </trkpt>
      <trkpt lat="44.51343" lon="6.13308">
        <ele>1038.842041</ele>
        <time>2016-05-20T11:01:47Z</time>
      </trkpt>
      <trkpt lat="44.5135" lon="6.13308">
        <ele>1038.3613281</ele>
        <time>2016-05-20T11:01:48Z</time>
      </trkpt>
      <trkpt lat="44.51363" lon="6.13308">
        <ele>1037.3999023</ele>
        <time>2016-05-20T11:01:50Z</time>
      </trkpt>
      <trkpt lat="44.51372" lon="6.13308">
        <ele>1036.4387207</ele>
        <time>2016-05-20T11:01:52Z</time>
      </trkpt>
      <trkpt lat="44.51391" lon="6.13319">
        <ele>1033.0737305</ele>
        <time>2016-05-20T11:01:56Z</time>
      </trkpt>
      <trkpt lat="44.51418" lon="6.13312">
        <ele>1031.6318359</ele>
        <time>2016-05-20T11:02:01Z</time>
      </trkpt>
      <trkpt lat="44.51432" lon="6.1331">
        <ele>1030.1899414</ele>
        <time>2016-05-20T11:02:04Z</time>
      </trkpt>
      <trkpt lat="44.51442" lon="6.13318">
        <ele>1029.7092285</ele>
        <time>2016-05-20T11:02:06Z</time>
      </trkpt>
      <trkpt lat="44.51461" lon="6.13337">
        <ele>1027.3061523</ele>
        <time>2016-05-20T11:02:10Z</time>
      </trkpt>
      <trkpt lat="44.51471" lon="6.13353">
        <ele>1024.902832</ele>
        <time>2016-05-20T11:02:13Z</time>
      </trkpt>
      <trkpt lat="44.51478" lon="6.1336">
        <ele>1023.4609375</ele>
        <time>2016-05-20T11:02:16Z</time>
      </trkpt>
      <trkpt lat="44.51493" lon="6.13351">
        <ele>1022.4995117</ele>
        <time>2016-05-20T11:02:18Z</time>
      </trkpt>
      <trkpt lat="44.51495" lon="6.13345">
        <ele>1022.0187988</ele>
        <time>2016-05-20T11:02:20Z</time>
      </trkpt>
      <trkpt lat="44.51504" lon="6.13347">
        <ele>1021.5380859</ele>
        <time>2016-05-20T11:02:22Z</time>
      </trkpt>
      <trkpt lat="44.515" lon="6.1333">
        <ele>1020.0961914</ele>
        <time>2016-05-20T11:02:25Z</time>
      </trkpt>
      <trkpt lat="44.51499" lon="6.13311">
        <ele>1018.6540527</ele>
        <time>2016-05-20T11:02:27Z</time>
      </trkpt>
      <trkpt lat="44.51494" lon="6.13293">
        <ele>1017.692627</ele>
        <time>2016-05-20T11:02:29Z</time>
      </trkpt>
      <trkpt lat="44.51488" lon="6.13279">
        <ele>1016.7314453</ele>
        <time>2016-05-20T11:02:31Z</time>
      </trkpt>
      <trkpt lat="44.51473" lon="6.13259">
        <ele>1014.328125</ele>
        <time>2016-05-20T11:02:34Z</time>
      </trkpt>
      <trkpt lat="44.51469" lon="6.13242">
        <ele>1012.8862305</ele>
        <time>2016-05-20T11:02:37Z</time>
      </trkpt>
      <trkpt lat="44.51455" lon="6.13233">
        <ele>1010.963623</ele>
        <time>2016-05-20T11:02:41Z</time>
      </trkpt>
      <trkpt lat="44.51453" lon="6.13231">
        <ele>1010.4829102</ele>
        <time>2016-05-20T11:02:42Z</time>
      </trkpt>
      <trkpt lat="44.5144" lon="6.1323">
        <ele>1010.0021973</ele>
        <time>2016-05-20T11:02:45Z</time>
      </trkpt>
      <trkpt lat="44.51415" lon="6.13214">
        <ele>1006.6376953</ele>
        <time>2016-05-20T11:02:51Z</time>
      </trkpt>
      <trkpt lat="44.51401" lon="6.13176">
        <ele>1003.7536621</ele>
        <time>2016-05-20T11:02:56Z</time>
      </trkpt>
      <trkpt lat="44.5139" lon="6.13131">
        <ele>1001.8310547</ele>
        <time>2016-05-20T11:03:01Z</time>
      </trkpt>
      <trkpt lat="44.51386" lon="6.13103">
        <ele>999.9084473</ele>
        <time>2016-05-20T11:03:04Z</time>
      </trkpt>
      <trkpt lat="44.51385" lon="6.1308">
        <ele>998.9470215</ele>
        <time>2016-05-20T11:03:06Z</time>
      </trkpt>
      <trkpt lat="44.51382" lon="6.1306">
        <ele>997.505127</ele>
        <time>2016-05-20T11:03:08Z</time>
      </trkpt>
      <trkpt lat="44.51382" lon="6.1305">
        <ele>995.5825195</ele>
        <time>2016-05-20T11:03:09Z</time>
      </trkpt>
      <trkpt lat="44.51382" lon="6.1303">
        <ele>994.6210938</ele>
        <time>2016-05-20T11:03:11Z</time>
      </trkpt>
      <trkpt lat="44.51385" lon="6.13001">
        <ele>993.1791992</ele>
        <time>2016-05-20T11:03:14Z</time>
      </trkpt>
      <trkpt lat="44.5139" lon="6.12986">
        <ele>992.2180176</ele>
        <time>2016-05-20T11:03:16Z</time>
      </trkpt>
      <trkpt lat="44.51387" lon="6.1295">
        <ele>991.2565918</ele>
        <time>2016-05-20T11:03:20Z</time>
      </trkpt>
      <trkpt lat="44.51387" lon="6.12931">
        <ele>991.2565918</ele>
        <time>2016-05-20T11:03:22Z</time>
      </trkpt>
      <trkpt lat="44.51409" lon="6.1289">
        <ele>989.3339844</ele>
        <time>2016-05-20T11:03:29Z</time>
      </trkpt>
      <trkpt lat="44.51438" lon="6.12869">
        <ele>986.4499512</ele>
        <time>2016-05-20T11:03:34Z</time>
      </trkpt>
      <trkpt lat="44.51449" lon="6.12854">
        <ele>985.0080566</ele>
        <time>2016-05-20T11:03:36Z</time>
      </trkpt>
      <trkpt lat="44.51458" lon="6.12838">
        <ele>983.0852051</ele>
        <time>2016-05-20T11:03:38Z</time>
      </trkpt>
      <trkpt lat="44.51468" lon="6.12817">
        <ele>980.201416</ele>
        <time>2016-05-20T11:03:41Z</time>
      </trkpt>
      <trkpt lat="44.51471" lon="6.1281">
        <ele>978.7595215</ele>
        <time>2016-05-20T11:03:42Z</time>
      </trkpt>
      <trkpt lat="44.51482" lon="6.12789">
        <ele>977.317627</ele>
        <time>2016-05-20T11:03:45Z</time>
      </trkpt>
      <trkpt lat="44.51495" lon="6.12766">
        <ele>975.3947754</ele>
        <time>2016-05-20T11:03:48Z</time>
      </trkpt>
      <trkpt lat="44.51504" lon="6.12753">
        <ele>973.4724121</ele>
        <time>2016-05-20T11:03:50Z</time>
      </trkpt>
      <trkpt lat="44.51513" lon="6.12738">
        <ele>972.5109863</ele>
        <time>2016-05-20T11:03:52Z</time>
      </trkpt>
      <trkpt lat="44.51527" lon="6.12716">
        <ele>969.6269531</ele>
        <time>2016-05-20T11:03:55Z</time>
      </trkpt>
      <trkpt lat="44.51531" lon="6.12701">
        <ele>968.1848145</ele>
        <time>2016-05-20T11:03:57Z</time>
      </trkpt>
      <trkpt lat="44.51533" lon="6.12685">
        <ele>967.2236328</ele>
        <time>2016-05-20T11:03:59Z</time>
      </trkpt>
      <trkpt lat="44.51522" lon="6.12627">
        <ele>965.7817383</ele>
        <time>2016-05-20T11:04:06Z</time>
      </trkpt>
      <trkpt lat="44.5152" lon="6.1262">
        <ele>965.7817383</ele>
        <time>2016-05-20T11:04:07Z</time>
      </trkpt>
      <trkpt lat="44.51501" lon="6.12575">
        <ele>967.2236328</ele>
        <time>2016-05-20T11:04:19Z</time>
      </trkpt>
      <trkpt lat="44.51493" lon="6.12526">
        <ele>968.6655273</ele>
        <time>2016-05-20T11:04:34Z</time>
      </trkpt>
      <trkpt lat="44.5149" lon="6.12462">
        <ele>970.5881348</ele>
        <time>2016-05-20T11:04:54Z</time>
      </trkpt>
      <trkpt lat="44.51494" lon="6.12394">
        <ele>971.5493164</ele>
        <time>2016-05-20T11:05:16Z</time>
      </trkpt>
      <trkpt lat="44.51509" lon="6.12349">
        <ele>972.9916992</ele>
        <time>2016-05-20T11:05:31Z</time>
      </trkpt>
      <trkpt lat="44.51546" lon="6.12321">
        <ele>972.5109863</ele>
        <time>2016-05-20T11:05:46Z</time>
      </trkpt>
      <trkpt lat="44.51568" lon="6.1231">
        <ele>972.9916992</ele>
        <time>2016-05-20T11:05:56Z</time>
      </trkpt>
      <trkpt lat="44.51563" lon="6.12289">
        <ele>973.9528809</ele>
        <time>2016-05-20T11:06:05Z</time>
      </trkpt>
      <trkpt lat="44.51556" lon="6.12285">
        <ele>974.4335938</ele>
        <time>2016-05-20T11:06:10Z</time>
      </trkpt>
      <trkpt lat="44.51549" lon="6.12279">
        <ele>974.9143066</ele>
        <time>2016-05-20T11:06:15Z</time>
      </trkpt>
      <trkpt lat="44.51516" lon="6.12244">
        <ele>975.3947754</ele>
        <time>2016-05-20T11:06:30Z</time>
      </trkpt>
      <trkpt lat="44.51499" lon="6.12183">
        <ele>976.3562012</ele>
        <time>2016-05-20T11:06:51Z</time>
      </trkpt>
      <trkpt lat="44.51503" lon="6.1214">
        <ele>975.3947754</ele>
        <time>2016-05-20T11:07:01Z</time>
      </trkpt>
      <trkpt lat="44.5148" lon="6.12108">
        <ele>977.7980957</ele>
        <time>2016-05-20T11:07:16Z</time>
      </trkpt>
      <trkpt lat="44.51462" lon="6.12063">
        <ele>980.201416</ele>
        <time>2016-05-20T11:07:33Z</time>
      </trkpt>
      <trkpt lat="44.51446" lon="6.12015">
        <ele>982.1240234</ele>
        <time>2016-05-20T11:07:51Z</time>
      </trkpt>
      <trkpt lat="44.51423" lon="6.11932">
        <ele>984.5273438</ele>
        <time>2016-05-20T11:08:20Z</time>
      </trkpt>
      <trkpt lat="44.5141" lon="6.11873">
        <ele>987.4111328</ele>
        <time>2016-05-20T11:08:41Z</time>
      </trkpt>
      <trkpt lat="44.514" lon="6.11829">
        <ele>990.2954102</ele>
        <time>2016-05-20T11:08:59Z</time>
      </trkpt>
      <trkpt lat="44.51399" lon="6.11807">
        <ele>991.7373047</ele>
        <time>2016-05-20T11:09:07Z</time>
      </trkpt>
      <trkpt lat="44.51396" lon="6.11762">
        <ele>992.6987305</ele>
        <time>2016-05-20T11:09:23Z</time>
      </trkpt>
      <trkpt lat="44.51402" lon="6.11686">
        <ele>990.7758789</ele>
        <time>2016-05-20T11:09:35Z</time>
      </trkpt>
      <trkpt lat="44.51409" lon="6.11663">
        <ele>990.7758789</ele>
        <time>2016-05-20T11:09:39Z</time>
      </trkpt>
      <trkpt lat="44.51412" lon="6.11651">
        <ele>991.2565918</ele>
        <time>2016-05-20T11:09:41Z</time>
      </trkpt>
      <trkpt lat="44.51404" lon="6.11609">
        <ele>991.2565918</ele>
        <time>2016-05-20T11:09:50Z</time>
      </trkpt>
      <trkpt lat="44.51375" lon="6.11584">
        <ele>992.2180176</ele>
        <time>2016-05-20T11:10:05Z</time>
      </trkpt>
      <trkpt lat="44.51335" lon="6.11573">
        <ele>992.6987305</ele>
        <time>2016-05-20T11:10:22Z</time>
      </trkpt>
      <trkpt lat="44.51301" lon="6.11557">
        <ele>995.1018066</ele>
        <time>2016-05-20T11:10:38Z</time>
      </trkpt>
      <trkpt lat="44.51271" lon="6.11551">
        <ele>997.9858398</ele>
        <time>2016-05-20T11:10:53Z</time>
      </trkpt>
      <trkpt lat="44.51244" lon="6.11512">
        <ele>998.4663086</ele>
        <time>2016-05-20T11:11:10Z</time>
      </trkpt>
      <trkpt lat="44.51238" lon="6.11497">
        <ele>998.4663086</ele>
        <time>2016-05-20T11:11:13Z</time>
      </trkpt>
      <trkpt lat="44.51213" lon="6.11458">
        <ele>996.5439453</ele>
        <time>2016-05-20T11:11:21Z</time>
      </trkpt>
      <trkpt lat="44.51148" lon="6.11396">
        <ele>993.6599121</ele>
        <time>2016-05-20T11:11:35Z</time>
      </trkpt>
      <trkpt lat="44.51083" lon="6.11379">
        <ele>991.2565918</ele>
        <time>2016-05-20T11:11:48Z</time>
      </trkpt>
      <trkpt lat="44.51022" lon="6.11343">
        <ele>989.8146973</ele>
        <time>2016-05-20T11:11:58Z</time>
      </trkpt>
      <trkpt lat="44.50958" lon="6.11317">
        <ele>986.4499512</ele>
        <time>2016-05-20T11:12:07Z</time>
      </trkpt>
      <trkpt lat="44.50898" lon="6.11293">
        <ele>984.5273438</ele>
        <time>2016-05-20T11:12:16Z</time>
      </trkpt>
      <trkpt lat="44.50859" lon="6.11242">
        <ele>983.0852051</ele>
        <time>2016-05-20T11:12:24Z</time>
      </trkpt>
      <trkpt lat="44.50828" lon="6.11216">
        <ele>979.7207031</ele>
        <time>2016-05-20T11:12:29Z</time>
      </trkpt>
      <trkpt lat="44.50794" lon="6.11196">
        <ele>977.317627</ele>
        <time>2016-05-20T11:12:33Z</time>
      </trkpt>
      <trkpt lat="44.50777" lon="6.11187">
        <ele>973.4724121</ele>
        <time>2016-05-20T11:12:35Z</time>
      </trkpt>
      <trkpt lat="44.50769" lon="6.11183">
        <ele>973.4724121</ele>
        <time>2016-05-20T11:12:36Z</time>
      </trkpt>
      <trkpt lat="44.50755" lon="6.11174">
        <ele>971.0688477</ele>
        <time>2016-05-20T11:12:38Z</time>
      </trkpt>
      <trkpt lat="44.5074" lon="6.11165">
        <ele>969.6269531</ele>
        <time>2016-05-20T11:12:40Z</time>
      </trkpt>
      <trkpt lat="44.50719" lon="6.1115">
        <ele>967.2236328</ele>
        <time>2016-05-20T11:12:43Z</time>
      </trkpt>
      <trkpt lat="44.50705" lon="6.11141">
        <ele>965.3010254</ele>
        <time>2016-05-20T11:12:45Z</time>
      </trkpt>
      <trkpt lat="44.50658" lon="6.11113">
        <ele>961.4558105</ele>
        <time>2016-05-20T11:12:51Z</time>
      </trkpt>
      <trkpt lat="44.5065" lon="6.11108">
        <ele>961.4558105</ele>
        <time>2016-05-20T11:12:52Z</time>
      </trkpt>
      <trkpt lat="44.50635" lon="6.11098">
        <ele>960.0136719</ele>
        <time>2016-05-20T11:12:54Z</time>
      </trkpt>
      <trkpt lat="44.50621" lon="6.11088">
        <ele>957.6105957</ele>
        <time>2016-05-20T11:12:56Z</time>
      </trkpt>
      <trkpt lat="44.50599" lon="6.11075">
        <ele>954.7263184</ele>
        <time>2016-05-20T11:12:59Z</time>
      </trkpt>
      <trkpt lat="44.50585" lon="6.11067">
        <ele>953.2844238</ele>
        <time>2016-05-20T11:13:01Z</time>
      </trkpt>
      <trkpt lat="44.50563" lon="6.11054">
        <ele>949.9199219</ele>
        <time>2016-05-20T11:13:05Z</time>
      </trkpt>
      <trkpt lat="44.50558" lon="6.1105">
        <ele>949.9199219</ele>
        <time>2016-05-20T11:13:06Z</time>
      </trkpt>
      <trkpt lat="44.50541" lon="6.1104">
        <ele>948.4777832</ele>
        <time>2016-05-20T11:13:09Z</time>
      </trkpt>
      <trkpt lat="44.50526" lon="6.11032">
        <ele>947.0358887</ele>
        <time>2016-05-20T11:13:12Z</time>
      </trkpt>
      <trkpt lat="44.50515" lon="6.11025">
        <ele>945.5939941</ele>
        <time>2016-05-20T11:13:15Z</time>
      </trkpt>
      <trkpt lat="44.50508" lon="6.11017">
        <ele>943.1906738</ele>
        <time>2016-05-20T11:13:19Z</time>
      </trkpt>
      <trkpt lat="44.50516" lon="6.11002">
        <ele>942.2294922</ele>
        <time>2016-05-20T11:13:25Z</time>
      </trkpt>
      <trkpt lat="44.50581" lon="6.10983">
        <ele>942.7102051</ele>
        <time>2016-05-20T11:13:46Z</time>
      </trkpt>
      <trkpt lat="44.50622" lon="6.10972">
        <ele>944.1520996</ele>
        <time>2016-05-20T11:14:02Z</time>
      </trkpt>
      <trkpt lat="44.5066" lon="6.10961">
        <ele>946.5554199</ele>
        <time>2016-05-20T11:14:21Z</time>
      </trkpt>
      <trkpt lat="44.50716" lon="6.10945">
        <ele>947.9973145</ele>
        <time>2016-05-20T11:14:46Z</time>
      </trkpt>
      <trkpt lat="44.50766" lon="6.10931">
        <ele>948.9584961</ele>
        <time>2016-05-20T11:15:07Z</time>
      </trkpt>
      <trkpt lat="44.50822" lon="6.10916">
        <ele>948.4777832</ele>
        <time>2016-05-20T11:15:29Z</time>
      </trkpt>
      <trkpt lat="44.50875" lon="6.109">
        <ele>950.4006348</ele>
        <time>2016-05-20T11:15:53Z</time>
      </trkpt>
      <trkpt lat="44.50908" lon="6.10871">
        <ele>951.8425293</ele>
        <time>2016-05-20T11:16:10Z</time>
      </trkpt>
      <trkpt lat="44.50942" lon="6.10823">
        <ele>954.2458496</ele>
        <time>2016-05-20T11:16:33Z</time>
      </trkpt>
      <trkpt lat="44.50966" lon="6.10785">
        <ele>956.6491699</ele>
        <time>2016-05-20T11:16:51Z</time>
      </trkpt>
      <trkpt lat="44.50993" lon="6.10741">
        <ele>959.5332031</ele>
        <time>2016-05-20T11:17:12Z</time>
      </trkpt>
      <trkpt lat="44.51022" lon="6.10694">
        <ele>962.4169922</ele>
        <time>2016-05-20T11:17:35Z</time>
      </trkpt>
      <trkpt lat="44.51039" lon="6.10665">
        <ele>963.8588867</ele>
        <time>2016-05-20T11:17:50Z</time>
      </trkpt>
      <trkpt lat="44.51056" lon="6.10619">
        <ele>966.262207</ele>
        <time>2016-05-20T11:18:11Z</time>
      </trkpt>
      <trkpt lat="44.51062" lon="6.10566">
        <ele>968.6655273</ele>
        <time>2016-05-20T11:18:31Z</time>
      </trkpt>
      <trkpt lat="44.51059" lon="6.10518">
        <ele>971.0688477</ele>
        <time>2016-05-20T11:18:49Z</time>
      </trkpt>
      <trkpt lat="44.51058" lon="6.10457">
        <ele>973.9528809</ele>
        <time>2016-05-20T11:19:12Z</time>
      </trkpt>
      <trkpt lat="44.51073" lon="6.10407">
        <ele>976.3562012</ele>
        <time>2016-05-20T11:19:32Z</time>
      </trkpt>
      <trkpt lat="44.51092" lon="6.10379">
        <ele>978.2788086</ele>
        <time>2016-05-20T11:19:47Z</time>
      </trkpt>
      <trkpt lat="44.51116" lon="6.10344">
        <ele>980.6821289</ele>
        <time>2016-05-20T11:20:05Z</time>
      </trkpt>
      <trkpt lat="44.51141" lon="6.10309">
        <ele>984.0466309</ele>
        <time>2016-05-20T11:20:24Z</time>
      </trkpt>
      <trkpt lat="44.51165" lon="6.10273">
        <ele>985.4885254</ele>
        <time>2016-05-20T11:20:42Z</time>
      </trkpt>
      <trkpt lat="44.51203" lon="6.10235">
        <ele>986.9304199</ele>
        <time>2016-05-20T11:21:03Z</time>
      </trkpt>
      <trkpt lat="44.5123" lon="6.10208">
        <ele>987.4111328</ele>
        <time>2016-05-20T11:21:18Z</time>
      </trkpt>
      <trkpt lat="44.5123" lon="6.10207">
        <ele>985.9692383</ele>
        <time>2016-05-20T11:21:35Z</time>
      </trkpt>
      <trkpt lat="44.51231" lon="6.10205">
        <ele>986.9304199</ele>
        <time>2016-05-20T11:22:26Z</time>
      </trkpt>
      <trkpt lat="44.51253" lon="6.10163">
        <ele>987.8918457</ele>
        <time>2016-05-20T11:22:39Z</time>
      </trkpt>
      <trkpt lat="44.51284" lon="6.10092">
        <ele>987.4111328</ele>
        <time>2016-05-20T11:22:58Z</time>
      </trkpt>
      <trkpt lat="44.51326" lon="6.10041">
        <ele>985.9692383</ele>
        <time>2016-05-20T11:23:11Z</time>
      </trkpt>
      <trkpt lat="44.51351" lon="6.10023">
        <ele>984.5273438</ele>
        <time>2016-05-20T11:23:15Z</time>
      </trkpt>
      <trkpt lat="44.5139" lon="6.09994">
        <ele>981.1628418</ele>
        <time>2016-05-20T11:23:21Z</time>
      </trkpt>
      <trkpt lat="44.51397" lon="6.09989">
        <ele>981.1628418</ele>
        <time>2016-05-20T11:23:22Z</time>
      </trkpt>
      <trkpt lat="44.51411" lon="6.09981">
        <ele>980.201416</ele>
        <time>2016-05-20T11:23:24Z</time>
      </trkpt>
      <trkpt lat="44.51425" lon="6.09973">
        <ele>978.7595215</ele>
        <time>2016-05-20T11:23:26Z</time>
      </trkpt>
      <trkpt lat="44.51484" lon="6.09959">
        <ele>975.3947754</ele>
        <time>2016-05-20T11:23:34Z</time>
      </trkpt>
      <trkpt lat="44.51512" lon="6.09958">
        <ele>973.4724121</ele>
        <time>2016-05-20T11:23:38Z</time>
      </trkpt>
      <trkpt lat="44.5158" lon="6.09965">
        <ele>970.1074219</ele>
        <time>2016-05-20T11:23:46Z</time>
      </trkpt>
      <trkpt lat="44.51625" lon="6.09977">
        <ele>966.262207</ele>
        <time>2016-05-20T11:23:51Z</time>
      </trkpt>
      <trkpt lat="44.51634" lon="6.09983">
        <ele>966.262207</ele>
        <time>2016-05-20T11:23:52Z</time>
      </trkpt>
      <trkpt lat="44.51668" lon="6.10008">
        <ele>964.8203125</ele>
        <time>2016-05-20T11:23:56Z</time>
      </trkpt>
      <trkpt lat="44.51684" lon="6.1002">
        <ele>961.9365234</ele>
        <time>2016-05-20T11:23:58Z</time>
      </trkpt>
      <trkpt lat="44.51724" lon="6.10035">
        <ele>959.5332031</ele>
        <time>2016-05-20T11:24:03Z</time>
      </trkpt>
      <trkpt lat="44.51742" lon="6.10046">
        <ele>957.1298828</ele>
        <time>2016-05-20T11:24:06Z</time>
      </trkpt>
      <trkpt lat="44.51747" lon="6.10053">
        <ele>956.168457</ele>
        <time>2016-05-20T11:24:07Z</time>
      </trkpt>
      <trkpt lat="44.5177" lon="6.10111">
        <ele>953.7651367</ele>
        <time>2016-05-20T11:24:13Z</time>
      </trkpt>
      <trkpt lat="44.51787" lon="6.10156">
        <ele>952.322998</ele>
        <time>2016-05-20T11:24:18Z</time>
      </trkpt>
      <trkpt lat="44.51795" lon="6.10198">
        <ele>950.4006348</ele>
        <time>2016-05-20T11:24:22Z</time>
      </trkpt>
      <trkpt lat="44.51804" lon="6.10224">
        <ele>948.4777832</ele>
        <time>2016-05-20T11:24:25Z</time>
      </trkpt>
      <trkpt lat="44.51849" lon="6.10224">
        <ele>946.074707</ele>
        <time>2016-05-20T11:24:32Z</time>
      </trkpt>
      <trkpt lat="44.51864" lon="6.10166">
        <ele>945.1132813</ele>
        <time>2016-05-20T11:24:38Z</time>
      </trkpt>
      <trkpt lat="44.51863" lon="6.10156">
        <ele>944.1520996</ele>
        <time>2016-05-20T11:24:39Z</time>
      </trkpt>
      <trkpt lat="44.51861" lon="6.10137">
        <ele>943.1906738</ele>
        <time>2016-05-20T11:24:41Z</time>
      </trkpt>
      <trkpt lat="44.51863" lon="6.10099">
        <ele>941.7487793</ele>
        <time>2016-05-20T11:24:45Z</time>
      </trkpt>
      <trkpt lat="44.51881" lon="6.10048">
        <ele>938.8647461</ele>
        <time>2016-05-20T11:24:50Z</time>
      </trkpt>
      <trkpt lat="44.51886" lon="6.10038">
        <ele>939.3452148</ele>
        <time>2016-05-20T11:24:51Z</time>
      </trkpt>
      <trkpt lat="44.51895" lon="6.10003">
        <ele>937.9033203</ele>
        <time>2016-05-20T11:24:54Z</time>
      </trkpt>
      <trkpt lat="44.51895" lon="6.0998">
        <ele>935.9807129</ele>
        <time>2016-05-20T11:24:56Z</time>
      </trkpt>
      <trkpt lat="44.51894" lon="6.09961">
        <ele>934.5388184</ele>
        <time>2016-05-20T11:24:58Z</time>
      </trkpt>
      <trkpt lat="44.51904" lon="6.09938">
        <ele>933.0966797</ele>
        <time>2016-05-20T11:25:01Z</time>
      </trkpt>
      <trkpt lat="44.51932" lon="6.09939">
        <ele>931.1743164</ele>
        <time>2016-05-20T11:25:05Z</time>
      </trkpt>
      <trkpt lat="44.51988" lon="6.09964">
        <ele>926.8483887</ele>
        <time>2016-05-20T11:25:12Z</time>
      </trkpt>
      <trkpt lat="44.52018" lon="6.09961">
        <ele>925.40625</ele>
        <time>2016-05-20T11:25:16Z</time>
      </trkpt>
      <trkpt lat="44.52034" lon="6.09951">
        <ele>924.9257813</ele>
        <time>2016-05-20T11:25:18Z</time>
      </trkpt>
      <trkpt lat="44.52051" lon="6.09948">
        <ele>923.4836426</ele>
        <time>2016-05-20T11:25:20Z</time>
      </trkpt>
      <trkpt lat="44.52097" lon="6.09957">
        <ele>920.5996094</ele>
        <time>2016-05-20T11:25:25Z</time>
      </trkpt>
      <trkpt lat="44.52136" lon="6.09966">
        <ele>919.6384277</ele>
        <time>2016-05-20T11:25:29Z</time>
      </trkpt>
      <trkpt lat="44.52156" lon="6.09971">
        <ele>917.7155762</ele>
        <time>2016-05-20T11:25:31Z</time>
      </trkpt>
      <trkpt lat="44.52186" lon="6.09978">
        <ele>914.8317871</ele>
        <time>2016-05-20T11:25:34Z</time>
      </trkpt>
      <trkpt lat="44.52207" lon="6.09981">
        <ele>913.8703613</ele>
        <time>2016-05-20T11:25:36Z</time>
      </trkpt>
      <trkpt lat="44.52228" lon="6.09985">
        <ele>912.4284668</ele>
        <time>2016-05-20T11:25:38Z</time>
      </trkpt>
      <trkpt lat="44.52273" lon="6.09974">
        <ele>910.0251465</ele>
        <time>2016-05-20T11:25:43Z</time>
      </trkpt>
      <trkpt lat="44.52327" lon="6.09947">
        <ele>905.6992188</ele>
        <time>2016-05-20T11:25:49Z</time>
      </trkpt>
      <trkpt lat="44.52337" lon="6.09943">
        <ele>905.6992188</ele>
        <time>2016-05-20T11:25:50Z</time>
      </trkpt>
      <trkpt lat="44.52396" lon="6.09924">
        <ele>901.8540039</ele>
        <time>2016-05-20T11:25:56Z</time>
      </trkpt>
      <trkpt lat="44.52405" lon="6.09923">
        <ele>901.8540039</ele>
        <time>2016-05-20T11:25:57Z</time>
      </trkpt>
      <trkpt lat="44.52413" lon="6.09922">
        <ele>899.9313965</ele>
        <time>2016-05-20T11:25:58Z</time>
      </trkpt>
      <trkpt lat="44.52439" lon="6.09926">
        <ele>898.4892578</ele>
        <time>2016-05-20T11:26:01Z</time>
      </trkpt>
      <trkpt lat="44.52465" lon="6.09942">
        <ele>896.0861816</ele>
        <time>2016-05-20T11:26:04Z</time>
      </trkpt>
      <trkpt lat="44.52488" lon="6.09967">
        <ele>893.6828613</ele>
        <time>2016-05-20T11:26:07Z</time>
      </trkpt>
      <trkpt lat="44.52514" lon="6.10003">
        <ele>891.2792969</ele>
        <time>2016-05-20T11:26:11Z</time>
      </trkpt>
      <trkpt lat="44.52533" lon="6.10046">
        <ele>889.3566895</ele>
        <time>2016-05-20T11:26:15Z</time>
      </trkpt>
      <trkpt lat="44.52537" lon="6.10068">
        <ele>887.9147949</ele>
        <time>2016-05-20T11:26:17Z</time>
      </trkpt>
      <trkpt lat="44.52536" lon="6.10104">
        <ele>886.9533691</ele>
        <time>2016-05-20T11:26:20Z</time>
      </trkpt>
      <trkpt lat="44.52529" lon="6.10153">
        <ele>884.0695801</ele>
        <time>2016-05-20T11:26:24Z</time>
      </trkpt>
      <trkpt lat="44.52527" lon="6.10164">
        <ele>883.1081543</ele>
        <time>2016-05-20T11:26:25Z</time>
      </trkpt>
      <trkpt lat="44.52547" lon="6.10198">
        <ele>882.1469727</ele>
        <time>2016-05-20T11:26:31Z</time>
      </trkpt>
      <trkpt lat="44.52582" lon="6.10164">
        <ele>882.1469727</ele>
        <time>2016-05-20T11:26:38Z</time>
      </trkpt>
      <trkpt lat="44.52584" lon="6.10155">
        <ele>881.185791</ele>
        <time>2016-05-20T11:26:39Z</time>
      </trkpt>
      <trkpt lat="44.52598" lon="6.10073">
        <ele>879.2629395</ele>
        <time>2016-05-20T11:26:47Z</time>
      </trkpt>
      <trkpt lat="44.52596" lon="6.09939">
        <ele>876.8598633</ele>
        <time>2016-05-20T11:26:59Z</time>
      </trkpt>
      <trkpt lat="44.52585" lon="6.0991">
        <ele>875.4174805</ele>
        <time>2016-05-20T11:27:02Z</time>
      </trkpt>
      <trkpt lat="44.52583" lon="6.09901">
        <ele>874.4562988</ele>
        <time>2016-05-20T11:27:03Z</time>
      </trkpt>
      <trkpt lat="44.5258" lon="6.0985">
        <ele>873.0144043</ele>
        <time>2016-05-20T11:27:08Z</time>
      </trkpt>
      <trkpt lat="44.52588" lon="6.09796">
        <ele>871.5722656</ele>
        <time>2016-05-20T11:27:13Z</time>
      </trkpt>
      <trkpt lat="44.52617" lon="6.09759">
        <ele>869.1691895</ele>
        <time>2016-05-20T11:27:19Z</time>
      </trkpt>
      <trkpt lat="44.52661" lon="6.09746">
        <ele>867.246582</ele>
        <time>2016-05-20T11:27:25Z</time>
      </trkpt>
      <trkpt lat="44.52742" lon="6.09709">
        <ele>863.4013672</ele>
        <time>2016-05-20T11:27:35Z</time>
      </trkpt>
      <trkpt lat="44.52814" lon="6.0965">
        <ele>862.9206543</ele>
        <time>2016-05-20T11:27:45Z</time>
      </trkpt>
      <trkpt lat="44.52897" lon="6.0959">
        <ele>860.517334</ele>
        <time>2016-05-20T11:27:58Z</time>
      </trkpt>
      <trkpt lat="44.52922" lon="6.0959">
        <ele>859.0751953</ele>
        <time>2016-05-20T11:28:02Z</time>
      </trkpt>
      <trkpt lat="44.52933" lon="6.09606">
        <ele>859.0751953</ele>
        <time>2016-05-20T11:28:04Z</time>
      </trkpt>
      <trkpt lat="44.52957" lon="6.09638">
        <ele>857.1525879</ele>
        <time>2016-05-20T11:28:08Z</time>
      </trkpt>
      <trkpt lat="44.52975" lon="6.09654">
        <ele>856.1911621</ele>
        <time>2016-05-20T11:28:11Z</time>
      </trkpt>
      <trkpt lat="44.53027" lon="6.09637">
        <ele>853.307373</ele>
        <time>2016-05-20T11:28:18Z</time>
      </trkpt>
      <trkpt lat="44.53058" lon="6.09594">
        <ele>851.3847656</ele>
        <time>2016-05-20T11:28:23Z</time>
      </trkpt>
      <trkpt lat="44.53076" lon="6.09534">
        <ele>849.9428711</ele>
        <time>2016-05-20T11:28:28Z</time>
      </trkpt>
      <trkpt lat="44.53078" lon="6.09514">
        <ele>848.5007324</ele>
        <time>2016-05-20T11:28:30Z</time>
      </trkpt>
      <trkpt lat="44.53104" lon="6.09485">
        <ele>847.0588379</ele>
        <time>2016-05-20T11:28:37Z</time>
      </trkpt>
      <trkpt lat="44.53109" lon="6.09488">
        <ele>846.0976563</ele>
        <time>2016-05-20T11:28:38Z</time>
      </trkpt>
      <trkpt lat="44.53126" lon="6.09499">
        <ele>845.6169434</ele>
        <time>2016-05-20T11:28:41Z</time>
      </trkpt>
      <trkpt lat="44.53148" lon="6.09521">
        <ele>844.6555176</ele>
        <time>2016-05-20T11:28:45Z</time>
      </trkpt>
      <trkpt lat="44.53184" lon="6.09592">
        <ele>842.2521973</ele>
        <time>2016-05-20T11:28:53Z</time>
      </trkpt>
      <trkpt lat="44.53197" lon="6.09619">
        <ele>841.2907715</ele>
        <time>2016-05-20T11:28:56Z</time>
      </trkpt>
      <trkpt lat="44.53211" lon="6.0965">
        <ele>839.3681641</ele>
        <time>2016-05-20T11:29:00Z</time>
      </trkpt>
      <trkpt lat="44.53236" lon="6.09644">
        <ele>837.4455566</ele>
        <time>2016-05-20T11:29:06Z</time>
      </trkpt>
      <trkpt lat="44.5324" lon="6.09626">
        <ele>837.9262695</ele>
        <time>2016-05-20T11:29:09Z</time>
      </trkpt>
      <trkpt lat="44.53244" lon="6.09566">
        <ele>840.3295898</ele>
        <time>2016-05-20T11:29:25Z</time>
      </trkpt>
      <trkpt lat="44.53281" lon="6.0953">
        <ele>842.7329102</ele>
        <time>2016-05-20T11:29:46Z</time>
      </trkpt>
      <trkpt lat="44.53305" lon="6.09529">
        <ele>844.1750488</ele>
        <time>2016-05-20T11:29:59Z</time>
      </trkpt>
      <trkpt lat="44.53309" lon="6.09523">
        <ele>844.6555176</ele>
        <time>2016-05-20T11:30:03Z</time>
      </trkpt>
      <trkpt lat="44.53311" lon="6.09518">
        <ele>844.6555176</ele>
        <time>2016-05-20T11:30:05Z</time>
      </trkpt>
      <trkpt lat="44.53311" lon="6.09472">
        <ele>847.0588379</ele>
        <time>2016-05-20T11:30:25Z</time>
      </trkpt>
      <trkpt lat="44.53306" lon="6.09415">
        <ele>849.4621582</ele>
        <time>2016-05-20T11:30:44Z</time>
      </trkpt>
      <trkpt lat="44.53304" lon="6.09354">
        <ele>852.8266602</ele>
        <time>2016-05-20T11:31:06Z</time>
      </trkpt>
      <trkpt lat="44.5332" lon="6.093">
        <ele>855.2299805</ele>
        <time>2016-05-20T11:31:29Z</time>
      </trkpt>
      <trkpt lat="44.53368" lon="6.09273">
        <ele>856.1911621</ele>
        <time>2016-05-20T11:31:53Z</time>
      </trkpt>
      <trkpt lat="44.53418" lon="6.09252">
        <ele>857.1525879</ele>
        <time>2016-05-20T11:32:12Z</time>
      </trkpt>
      <trkpt lat="44.53465" lon="6.09218">
        <ele>856.671875</ele>
        <time>2016-05-20T11:32:27Z</time>
      </trkpt>
      <trkpt lat="44.53517" lon="6.09152">
        <ele>855.7106934</ele>
        <time>2016-05-20T11:32:42Z</time>
      </trkpt>
      <trkpt lat="44.53582" lon="6.0911">
        <ele>855.7106934</ele>
        <time>2016-05-20T11:32:59Z</time>
      </trkpt>
      <trkpt lat="44.53659" lon="6.09052">
        <ele>855.2299805</ele>
        <time>2016-05-20T11:33:21Z</time>
      </trkpt>
      <trkpt lat="44.53715" lon="6.09011">
        <ele>853.7880859</ele>
        <time>2016-05-20T11:33:34Z</time>
      </trkpt>
      <trkpt lat="44.53738" lon="6.09001">
        <ele>853.7880859</ele>
        <time>2016-05-20T11:33:38Z</time>
      </trkpt>
      <trkpt lat="44.53797" lon="6.09002">
        <ele>849.9428711</ele>
        <time>2016-05-20T11:33:46Z</time>
      </trkpt>
      <trkpt lat="44.53805" lon="6.09003">
        <ele>849.9428711</ele>
        <time>2016-05-20T11:33:47Z</time>
      </trkpt>
      <trkpt lat="44.53832" lon="6.09006">
        <ele>848.9814453</ele>
        <time>2016-05-20T11:33:50Z</time>
      </trkpt>
      <trkpt lat="44.53867" lon="6.0902">
        <ele>847.0588379</ele>
        <time>2016-05-20T11:33:54Z</time>
      </trkpt>
      <trkpt lat="44.53941" lon="6.09054">
        <ele>843.2133789</ele>
        <time>2016-05-20T11:34:02Z</time>
      </trkpt>
      <trkpt lat="44.53951" lon="6.09055">
        <ele>843.2133789</ele>
        <time>2016-05-20T11:34:03Z</time>
      </trkpt>
      <trkpt lat="44.53981" lon="6.09062">
        <ele>841.7714844</ele>
        <time>2016-05-20T11:34:06Z</time>
      </trkpt>
      <trkpt lat="44.54001" lon="6.09072">
        <ele>840.8100586</ele>
        <time>2016-05-20T11:34:08Z</time>
      </trkpt>
      <trkpt lat="44.54047" lon="6.09107">
        <ele>837.9262695</ele>
        <time>2016-05-20T11:34:13Z</time>
      </trkpt>
      <trkpt lat="44.54063" lon="6.09118">
        <ele>837.4455566</ele>
        <time>2016-05-20T11:34:15Z</time>
      </trkpt>
      <trkpt lat="44.54113" lon="6.09112">
        <ele>835.0424805</ele>
        <time>2016-05-20T11:34:21Z</time>
      </trkpt>
      <trkpt lat="44.54138" lon="6.09096">
        <ele>833.1196289</ele>
        <time>2016-05-20T11:34:24Z</time>
      </trkpt>
      <trkpt lat="44.54157" lon="6.09085">
        <ele>831.6777344</ele>
        <time>2016-05-20T11:34:26Z</time>
      </trkpt>
      <trkpt lat="44.54203" lon="6.09055">
        <ele>829.2744141</ele>
        <time>2016-05-20T11:34:31Z</time>
      </trkpt>
      <trkpt lat="44.54221" lon="6.09045">
        <ele>828.3132324</ele>
        <time>2016-05-20T11:34:33Z</time>
      </trkpt>
      <trkpt lat="44.5424" lon="6.09038">
        <ele>826.8710938</ele>
        <time>2016-05-20T11:34:35Z</time>
      </trkpt>
      <trkpt lat="44.54269" lon="6.09039">
        <ele>824.9484863</ele>
        <time>2016-05-20T11:34:38Z</time>
      </trkpt>
      <trkpt lat="44.54279" lon="6.09042">
        <ele>824.9484863</ele>
        <time>2016-05-20T11:34:39Z</time>
      </trkpt>
      <trkpt lat="44.54309" lon="6.09052">
        <ele>823.5065918</ele>
        <time>2016-05-20T11:34:42Z</time>
      </trkpt>
      <trkpt lat="44.54339" lon="6.09064">
        <ele>820.6225586</ele>
        <time>2016-05-20T11:34:45Z</time>
      </trkpt>
      <trkpt lat="44.54369" lon="6.09078">
        <ele>819.1806641</ele>
        <time>2016-05-20T11:34:48Z</time>
      </trkpt>
      <trkpt lat="44.54402" lon="6.09113">
        <ele>817.7385254</ele>
        <time>2016-05-20T11:34:52Z</time>
      </trkpt>
      <trkpt lat="44.54414" lon="6.09136">
        <ele>817.2580566</ele>
        <time>2016-05-20T11:34:54Z</time>
      </trkpt>
      <trkpt lat="44.54426" lon="6.09152">
        <ele>815.3354492</ele>
        <time>2016-05-20T11:34:56Z</time>
      </trkpt>
      <trkpt lat="44.54441" lon="6.09159">
        <ele>812.451416</ele>
        <time>2016-05-20T11:34:58Z</time>
      </trkpt>
      <trkpt lat="44.54448" lon="6.09159">
        <ele>812.451416</ele>
        <time>2016-05-20T11:34:59Z</time>
      </trkpt>
      <trkpt lat="44.54462" lon="6.09148">
        <ele>811.0092773</ele>
        <time>2016-05-20T11:35:01Z</time>
      </trkpt>
      <trkpt lat="44.54472" lon="6.0913">
        <ele>809.0866699</ele>
        <time>2016-05-20T11:35:03Z</time>
      </trkpt>
      <trkpt lat="44.54478" lon="6.09108">
        <ele>808.1254883</ele>
        <time>2016-05-20T11:35:05Z</time>
      </trkpt>
      <trkpt lat="44.54492" lon="6.08994">
        <ele>804.7607422</ele>
        <time>2016-05-20T11:35:14Z</time>
      </trkpt>
      <trkpt lat="44.54494" lon="6.0898">
        <ele>804.7607422</ele>
        <time>2016-05-20T11:35:15Z</time>
      </trkpt>
      <trkpt lat="44.54507" lon="6.0887">
        <ele>800.9155273</ele>
        <time>2016-05-20T11:35:23Z</time>
      </trkpt>
      <trkpt lat="44.54522" lon="6.08743">
        <ele>797.0703125</ele>
        <time>2016-05-20T11:35:32Z</time>
      </trkpt>
      <trkpt lat="44.54524" lon="6.08731">
        <ele>797.0703125</ele>
        <time>2016-05-20T11:35:33Z</time>
      </trkpt>
      <trkpt lat="44.54525" lon="6.08718">
        <ele>795.6281738</ele>
        <time>2016-05-20T11:35:34Z</time>
      </trkpt>
      <trkpt lat="44.54531" lon="6.08696">
        <ele>795.1474609</ele>
        <time>2016-05-20T11:35:36Z</time>
      </trkpt>
      <trkpt lat="44.5454" lon="6.08676">
        <ele>793.7055664</ele>
        <time>2016-05-20T11:35:38Z</time>
      </trkpt>
      <trkpt lat="44.54563" lon="6.08636">
        <ele>790.8215332</ele>
        <time>2016-05-20T11:35:43Z</time>
      </trkpt>
      <trkpt lat="44.54567" lon="6.0863">
        <ele>789.3796387</ele>
        <time>2016-05-20T11:35:44Z</time>
      </trkpt>
      <trkpt lat="44.54578" lon="6.08616">
        <ele>788.418457</ele>
        <time>2016-05-20T11:35:47Z</time>
      </trkpt>
      <trkpt lat="44.54599" lon="6.08584">
        <ele>786.9763184</ele>
        <time>2016-05-20T11:35:59Z</time>
      </trkpt>
      <trkpt lat="44.54618" lon="6.08532">
        <ele>788.8991699</ele>
        <time>2016-05-20T11:36:16Z</time>
      </trkpt>
      <trkpt lat="44.54621" lon="6.08471">
        <ele>791.3022461</ele>
        <time>2016-05-20T11:36:36Z</time>
      </trkpt>
      <trkpt lat="44.5461" lon="6.08405">
        <ele>794.1862793</ele>
        <time>2016-05-20T11:37:00Z</time>
      </trkpt>
      <trkpt lat="44.546" lon="6.08357">
        <ele>795.6281738</ele>
        <time>2016-05-20T11:37:18Z</time>
      </trkpt>
      <trkpt lat="44.54585" lon="6.08286">
        <ele>798.512207</ele>
        <time>2016-05-20T11:37:43Z</time>
      </trkpt>
      <trkpt lat="44.54575" lon="6.08224">
        <ele>801.3962402</ele>
        <time>2016-05-20T11:38:05Z</time>
      </trkpt>
      <trkpt lat="44.54563" lon="6.0817">
        <ele>803.3188477</ele>
        <time>2016-05-20T11:38:26Z</time>
      </trkpt>
      <trkpt lat="44.54562" lon="6.0816">
        <ele>803.7995605</ele>
        <time>2016-05-20T11:38:30Z</time>
      </trkpt>
      <trkpt lat="44.54551" lon="6.08088">
        <ele>806.6833496</ele>
        <time>2016-05-20T11:38:54Z</time>
      </trkpt>
      <trkpt lat="44.54548" lon="6.08042">
        <ele>808.1254883</ele>
        <time>2016-05-20T11:39:09Z</time>
      </trkpt>
      <trkpt lat="44.5453" lon="6.07993">
        <ele>808.605957</ele>
        <time>2016-05-20T11:39:25Z</time>
      </trkpt>
      <trkpt lat="44.54508" lon="6.07908">
        <ele>809.5673828</ele>
        <time>2016-05-20T11:39:50Z</time>
      </trkpt>
      <trkpt lat="44.54497" lon="6.07852">
        <ele>809.0866699</ele>
        <time>2016-05-20T11:40:03Z</time>
      </trkpt>
      <trkpt lat="44.54496" lon="6.07838">
        <ele>808.605957</ele>
        <time>2016-05-20T11:40:05Z</time>
      </trkpt>
      <trkpt lat="44.54524" lon="6.07789">
        <ele>806.6833496</ele>
        <time>2016-05-20T11:40:12Z</time>
      </trkpt>
      <trkpt lat="44.54552" lon="6.0777">
        <ele>805.2414551</ele>
        <time>2016-05-20T11:40:16Z</time>
      </trkpt>
      <trkpt lat="44.54581" lon="6.0775">
        <ele>803.3188477</ele>
        <time>2016-05-20T11:40:20Z</time>
      </trkpt>
      <trkpt lat="44.54603" lon="6.07744">
        <ele>801.8769531</ele>
        <time>2016-05-20T11:40:23Z</time>
      </trkpt>
      <trkpt lat="44.5462" lon="6.07749">
        <ele>800.4350586</ele>
        <time>2016-05-20T11:40:25Z</time>
      </trkpt>
      <trkpt lat="44.54664" lon="6.07766">
        <ele>797.5510254</ele>
        <time>2016-05-20T11:40:30Z</time>
      </trkpt>
      <trkpt lat="44.54708" lon="6.07784">
        <ele>793.7055664</ele>
        <time>2016-05-20T11:40:35Z</time>
      </trkpt>
      <trkpt lat="44.54723" lon="6.0779">
        <ele>792.7443848</ele>
        <time>2016-05-20T11:40:37Z</time>
      </trkpt>
      <trkpt lat="44.54748" lon="6.078">
        <ele>791.3022461</ele>
        <time>2016-05-20T11:40:40Z</time>
      </trkpt>
      <trkpt lat="44.5478" lon="6.07823">
        <ele>789.3796387</ele>
        <time>2016-05-20T11:40:44Z</time>
      </trkpt>
      <trkpt lat="44.54796" lon="6.07835">
        <ele>787.9377441</ele>
        <time>2016-05-20T11:40:46Z</time>
      </trkpt>
      <trkpt lat="44.54827" lon="6.07862">
        <ele>786.0151367</ele>
        <time>2016-05-20T11:40:50Z</time>
      </trkpt>
      <trkpt lat="44.54853" lon="6.07871">
        <ele>784.5732422</ele>
        <time>2016-05-20T11:40:53Z</time>
      </trkpt>
      <trkpt lat="44.54888" lon="6.07859">
        <ele>783.1311035</ele>
        <time>2016-05-20T11:40:57Z</time>
      </trkpt>
      <trkpt lat="44.54902" lon="6.07844">
        <ele>780.7280273</ele>
        <time>2016-05-20T11:40:59Z</time>
      </trkpt>
      <trkpt lat="44.54914" lon="6.07829">
        <ele>779.2856445</ele>
        <time>2016-05-20T11:41:01Z</time>
      </trkpt>
      <trkpt lat="44.54958" lon="6.07821">
        <ele>776.4018555</ele>
        <time>2016-05-20T11:41:07Z</time>
      </trkpt>
      <trkpt lat="44.5502" lon="6.07843">
        <ele>773.5180664</ele>
        <time>2016-05-20T11:41:14Z</time>
      </trkpt>
      <trkpt lat="44.55039" lon="6.07849">
        <ele>772.5566406</ele>
        <time>2016-05-20T11:41:16Z</time>
      </trkpt>
      <trkpt lat="44.55077" lon="6.07859">
        <ele>767.75</ele>
        <time>2016-05-20T11:41:20Z</time>
      </trkpt>
      <trkpt lat="44.55085" lon="6.07861">
        <ele>767.75</ele>
        <time>2016-05-20T11:41:21Z</time>
      </trkpt>
      <trkpt lat="44.551" lon="6.07864">
        <ele>766.3081055</ele>
        <time>2016-05-20T11:41:23Z</time>
      </trkpt>
      <trkpt lat="44.55123" lon="6.07868">
        <ele>764.8662109</ele>
        <time>2016-05-20T11:41:26Z</time>
      </trkpt>
      <trkpt lat="44.55157" lon="6.07863">
        <ele>762.4626465</ele>
        <time>2016-05-20T11:41:30Z</time>
      </trkpt>
      <trkpt lat="44.55178" lon="6.07861">
        <ele>760.5400391</ele>
        <time>2016-05-20T11:41:33Z</time>
      </trkpt>
      <trkpt lat="44.55218" lon="6.07873">
        <ele>758.6174316</ele>
        <time>2016-05-20T11:41:38Z</time>
      </trkpt>
      <trkpt lat="44.55237" lon="6.07881">
        <ele>756.6948242</ele>
        <time>2016-05-20T11:41:41Z</time>
      </trkpt>
      <trkpt lat="44.55254" lon="6.0789">
        <ele>754.7722168</ele>
        <time>2016-05-20T11:41:44Z</time>
      </trkpt>
      <trkpt lat="44.5528" lon="6.07894">
        <ele>753.8110352</ele>
        <time>2016-05-20T11:41:48Z</time>
      </trkpt>
      <trkpt lat="44.55302" lon="6.07886">
        <ele>752.3688965</ele>
        <time>2016-05-20T11:41:51Z</time>
      </trkpt>
      <trkpt lat="44.55339" lon="6.07874">
        <ele>749.0043945</ele>
        <time>2016-05-20T11:41:57Z</time>
      </trkpt>
      <trkpt lat="44.55387" lon="6.0788">
        <ele>747.5622559</ele>
        <time>2016-05-20T11:42:04Z</time>
      </trkpt>
      <trkpt lat="44.55453" lon="6.07897">
        <ele>744.1977539</ele>
        <time>2016-05-20T11:42:12Z</time>
      </trkpt>
      <trkpt lat="44.55512" lon="6.07913">
        <ele>742.7558594</ele>
        <time>2016-05-20T11:42:20Z</time>
      </trkpt>
      <trkpt lat="44.55532" lon="6.07912">
        <ele>742.2751465</ele>
        <time>2016-05-20T11:42:23Z</time>
      </trkpt>
      <trkpt lat="44.55547" lon="6.07902">
        <ele>740.8330078</ele>
        <time>2016-05-20T11:42:26Z</time>
      </trkpt>
      <trkpt lat="44.55585" lon="6.07885">
        <ele>740.8330078</ele>
        <time>2016-05-20T11:42:37Z</time>
      </trkpt>
      <trkpt lat="44.55587" lon="6.07884">
        <ele>740.3525391</ele>
        <time>2016-05-20T11:42:38Z</time>
      </trkpt>
      <trkpt lat="44.5559" lon="6.07866">
        <ele>740.8330078</ele>
        <time>2016-05-20T11:42:42Z</time>
      </trkpt>
      <trkpt lat="44.55589" lon="6.07848">
        <ele>740.8330078</ele>
        <time>2016-05-20T11:42:45Z</time>
      </trkpt>
      <trkpt lat="44.55594" lon="6.07826">
        <ele>740.8330078</ele>
        <time>2016-05-20T11:42:49Z</time>
      </trkpt>
      <trkpt lat="44.5562" lon="6.07761">
        <ele>742.2751465</ele>
        <time>2016-05-20T11:43:06Z</time>
      </trkpt>
      <trkpt lat="44.55647" lon="6.07728">
        <ele>743.717041</ele>
        <time>2016-05-20T11:43:18Z</time>
      </trkpt>
      <trkpt lat="44.55657" lon="6.07704">
        <ele>744.6782227</ele>
        <time>2016-05-20T11:43:29Z</time>
      </trkpt>
      <trkpt lat="44.55662" lon="6.07702">
        <ele>744.6782227</ele>
        <time>2016-05-20T11:43:33Z</time>
      </trkpt>
      <trkpt lat="44.55686" lon="6.07713">
        <ele>745.6396484</ele>
        <time>2016-05-20T11:43:41Z</time>
      </trkpt>
      <trkpt lat="44.55699" lon="6.07703">
        <ele>745.6396484</ele>
        <time>2016-05-20T11:43:47Z</time>
      </trkpt>
      <trkpt lat="44.55731" lon="6.07657">
        <ele>747.5622559</ele>
        <time>2016-05-20T11:44:06Z</time>
      </trkpt>
      <trkpt lat="44.5576" lon="6.07627">
        <ele>749.4851074</ele>
        <time>2016-05-20T11:44:23Z</time>
      </trkpt>
      <trkpt lat="44.55766" lon="6.07621">
        <ele>749.4851074</ele>
        <time>2016-05-20T11:44:26Z</time>
      </trkpt>
      <trkpt lat="44.55774" lon="6.07627">
        <ele>750.4465332</ele>
        <time>2016-05-20T11:44:33Z</time>
      </trkpt>
      <trkpt lat="44.55778" lon="6.07609">
        <ele>750.927002</ele>
        <time>2016-05-20T11:44:41Z</time>
      </trkpt>
      <trkpt lat="44.55782" lon="6.07602">
        <ele>750.927002</ele>
        <time>2016-05-20T11:44:45Z</time>
      </trkpt>
      <trkpt lat="44.55785" lon="6.07598">
        <ele>751.4077148</ele>
        <time>2016-05-20T11:44:47Z</time>
      </trkpt>
      <trkpt lat="44.55802" lon="6.07592">
        <ele>751.8884277</ele>
        <time>2016-05-20T11:44:54Z</time>
      </trkpt>
      <trkpt lat="44.55809" lon="6.07598">
        <ele>752.3688965</ele>
        <time>2016-05-20T11:44:59Z</time>
      </trkpt>
      <trkpt lat="44.55829" lon="6.07606">
        <ele>753.8110352</ele>
        <time>2016-05-20T11:45:10Z</time>
      </trkpt>
      <trkpt lat="44.55834" lon="6.07618">
        <ele>753.8110352</ele>
        <time>2016-05-20T11:45:13Z</time>
      </trkpt>
      <trkpt lat="44.55855" lon="6.07624">
        <ele>754.291748</ele>
        <time>2016-05-20T11:45:21Z</time>
      </trkpt>
      <trkpt lat="44.5586" lon="6.07623">
        <ele>754.291748</ele>
        <time>2016-05-20T11:45:23Z</time>
      </trkpt>
      <trkpt lat="44.55901" lon="6.07635">
        <ele>755.7336426</ele>
        <time>2016-05-20T11:45:38Z</time>
      </trkpt>
      <trkpt lat="44.55946" lon="6.07609">
        <ele>758.6174316</ele>
        <time>2016-05-20T11:45:56Z</time>
      </trkpt>
      <trkpt lat="44.55965" lon="6.076">
        <ele>761.020752</ele>
        <time>2016-05-20T11:46:06Z</time>
      </trkpt>
      <trkpt lat="44.55965" lon="6.07588">
        <ele>761.020752</ele>
        <time>2016-05-20T11:46:12Z</time>
      </trkpt>
      <trkpt lat="44.5591" lon="6.07532">
        <ele>760.0593262</ele>
        <time>2016-05-20T11:46:31Z</time>
      </trkpt>
      <trkpt lat="44.55887" lon="6.07509">
        <ele>759.0981445</ele>
        <time>2016-05-20T11:46:39Z</time>
      </trkpt>
      <trkpt lat="44.5588" lon="6.07504">
        <ele>759.5788574</ele>
        <time>2016-05-20T11:46:47Z</time>
      </trkpt>
      <trkpt lat="44.5588" lon="6.07502">
        <ele>759.0981445</ele>
        <time>2016-05-20T11:46:50Z</time>
      </trkpt>
      <trkpt lat="44.55874" lon="6.07499">
        <ele>758.6174316</ele>
        <time>2016-05-20T11:46:57Z</time>
      </trkpt>
      <trkpt lat="44.55856" lon="6.07466">
        <ele>759.5788574</ele>
        <time>2016-05-20T11:47:12Z</time>
      </trkpt>
      <trkpt lat="44.55823" lon="6.07432">
        <ele>759.5788574</ele>
        <time>2016-05-20T11:47:17Z</time>
      </trkpt>
    </trkseg>
  </trk>
</gpx>